Observation data for JA Ranch on 05/12/2021      Previous  Date  Next       Current Mesonet Observations  Soil Data  Daily Summary Page  Observations in Plain Language
KPD3 120500Z 02011KT 10/06 A303 RMK A01 T01040060  RH  074%=      5-min Rain = 0
KPD3 120501Z 02011KT 10/06 A303 RMK A01 T01040059  RH  074%=      5-min Rain = 0
KPD3 120502Z 01011KT 10/06 A303 RMK A01 T01040060  RH  074%=      5-min Rain = 0
KPD3 120503Z 02010KT 10/06 A303 RMK A01 T01040060  RH  074%=      5-min Rain = 0
KPD3 120504Z 01012KT 10/06 A303 RMK A01 T01040060  RH  074%=      5-min Rain = 0
KPD3 120505Z 02011KT 10/06 A303 RMK A01 T01040059  RH  073%=      5-min Rain = 0
KPD3 120506Z 02010KT 10/06 A303 RMK A01 T01040059  RH  073%=      5-min Rain = 0
KPD3 120507Z 02008KT 10/06 A303 RMK A01 T01040060  RH  074%=      5-min Rain = 0
KPD3 120508Z 01010KT 10/06 A303 RMK A01 T01040061  RH  074%=      5-min Rain = 0
KPD3 120509Z 03013KT 10/06 A303 RMK A01 T01040059  RH  073%=      5-min Rain = 0
KPD3 120510Z 02010KT 10/06 A303 RMK A01 T01040058  RH  073%=      5-min Rain = 0
KPD3 120511Z 02011KT 10/06 A303 RMK A01 T01040059  RH  073%=      5-min Rain = 0
KPD3 120512Z 02009KT 11/06 A3031 RMK A01 T01050059  RH  073%=      5-min Rain = 0
KPD3 120513Z 02009KT 10/06 A3031 RMK A01 T01040058  RH  073%=      5-min Rain = 0
KPD3 120514Z 02009KT 10/06 A3031 RMK A01 T01040059  RH  073%=      5-min Rain = 0
KPD3 120515Z 01011KT 10/06 A3031 RMK A01 T01040059  RH  074%=      5-min Rain = 0
KPD3 120516Z 01011KT 10/06 A3031 RMK A01 T01040058  RH  073%=      5-min Rain = 0
KPD3 120517Z 01009KT 10/06 A3031 RMK A01 T01040059  RH  073%=      5-min Rain = 0
KPD3 120518Z 01010KT 10/06 A3031 RMK A01 T01040059  RH  074%=      5-min Rain = 0
KPD3 120519Z 01010KT 10/06 A3031 RMK A01 T01030059  RH  074%=      5-min Rain = 0
KPD3 120520Z 01009KT 10/06 A3031 RMK A01 T01030058  RH  074%=      5-min Rain = 0
KPD3 120521Z 01008KT 10/06 A3031 RMK A01 T01030059  RH  074%=      5-min Rain = 0
KPD3 120522Z 01009KT 10/06 A3031 RMK A01 T01030059  RH  074%=      5-min Rain = 0
KPD3 120523Z 01009KT 10/06 A3031 RMK A01 T01030059  RH  074%=      5-min Rain = 0
KPD3 120524Z 01009KT 10/06 A3031 RMK A01 T01030060  RH  074%=      5-min Rain = 0
KPD3 120525Z 01009KT 10/06 A3031 RMK A01 T01030059  RH  074%=      5-min Rain = 0
KPD3 120526Z 01010KT 10/06 A303 RMK A01 T01030059  RH  074%=      5-min Rain = 0
KPD3 120527Z 01010KT 10/06 A3031 RMK A01 T01030059  RH  074%=      5-min Rain = 0
KPD3 120528Z 01011KT 10/06 A3031 RMK A01 T01030059  RH  074%=      5-min Rain = 0
KPD3 120529Z 02009KT 10/06 A3031 RMK A01 T01020058  RH  074%=      5-min Rain = 0
KPD3 120530Z 01009KT 10/06 A3031 RMK A01 T01030059  RH  074%=      5-min Rain = 0
KPD3 120531Z 01010KT 10/06 A3031 RMK A01 T01020059  RH  074%=      5-min Rain = 0
KPD3 120532Z 01009KT 10/06 A3031 RMK A01 T01030059  RH  074%=      5-min Rain = 0
KPD3 120533Z 02008KT 10/06 A3031 RMK A01 T01030059  RH  074%=      5-min Rain = 0
KPD3 120534Z 01007KT 10/06 A3031 RMK A01 T01020059  RH  075%=      5-min Rain = 0
KPD3 120535Z 02009KT 10/06 A3031 RMK A01 T01020059  RH  075%=      5-min Rain = 0
KPD3 120536Z 02009KT 10/06 A303 RMK A01 T01020059  RH  074%=      5-min Rain = 0
KPD3 120537Z 01008KT 10/06 A3031 RMK A01 T01020059  RH  075%=      5-min Rain = 0
KPD3 120538Z 02007KT 10/06 A3031 RMK A01 T01020059  RH  075%=      5-min Rain = 0
KPD3 120539Z 01009KT 10/06 A3031 RMK A01 T01020059  RH  075%=      5-min Rain = 0
KPD3 120540Z 01008KT 10/06 A3031 RMK A01 T01010058  RH  075%=      5-min Rain = 0
KPD3 120541Z 01009KT 10/06 A3031 RMK A01 T01010058  RH  074%=      5-min Rain = 0
KPD3 120542Z 01009KT 10/06 A3031 RMK A01 T01010058  RH  074%=      5-min Rain = 0
KPD3 120543Z 02009KT 10/06 A3031 RMK A01 T01010057  RH  074%=      5-min Rain = 0
KPD3 120544Z 02008KT 10/06 A303 RMK A01 T01020058  RH  074%=      5-min Rain = 0
KPD3 120545Z 02008KT 10/06 A303 RMK A01 T01010058  RH  074%=      5-min Rain = 0
KPD3 120546Z 02009KT 10/06 A303 RMK A01 T01020058  RH  074%=      5-min Rain = 0
KPD3 120547Z 02009KT 10/06 A303 RMK A01 T01020059  RH  074%=      5-min Rain = 0
KPD3 120548Z 02009KT 10/06 A303 RMK A01 T01020058  RH  074%=      5-min Rain = 0
KPD3 120549Z 02009KT 10/06 A303 RMK A01 T01010058  RH  075%=      5-min Rain = 0
KPD3 120550Z 02007KT 10/06 A303 RMK A01 T01020059  RH  075%=      5-min Rain = 0
KPD3 120551Z 02007KT 10/06 A303 RMK A01 T01010059  RH  075%=      5-min Rain = 0
KPD3 120552Z 02008KT 10/06 A303 RMK A01 T01010060  RH  076%=      5-min Rain = 0
KPD3 120553Z 02008KT 10/06 A303 RMK A01 T01000059  RH  075%=      5-min Rain = 0
KPD3 120554Z 02008KT 10/06 A303 RMK A01 T01000059  RH  075%=      5-min Rain = 0
KPD3 120555Z 02007KT 10/06 A303 RMK A01 T01000058  RH  075%=      5-min Rain = 0
KPD3 120556Z 02007KT 10/06 A303 RMK A01 T01000058  RH  075%=      5-min Rain = 0
KPD3 120557Z 02009KT 10/06 A303 RMK A01 T01000058  RH  075%=      5-min Rain = 0
KPD3 120558Z 02007KT 10/06 A303 RMK A01 T01010059  RH  075%=      5-min Rain = 0
KPD3 120559Z 03007KT 10/06 A303 RMK A01 T01000058  RH  075%=      5-min Rain = 0
KPD3 120600Z 02007KT 10/06 A303 RMK A01 T01000059  RH  075%=      5-min Rain = 0
KPD3 120601Z 02007KT 10/06 A303 RMK A01 T01000059  RH  075%=      5-min Rain = 0
KPD3 120602Z 02008KT 10/06 A303 RMK A01 T01000059  RH  075%=      5-min Rain = 0
KPD3 120603Z 02007KT 10/06 A303 RMK A01 T01000059  RH  075%=      5-min Rain = 0
KPD3 120604Z 02006KT 10/06 A3031 RMK A01 T01000059  RH  075%=      5-min Rain = 0
KPD3 120605Z 02006KT 10/06 A3031 RMK A01 T01000059  RH  076%=      5-min Rain = 0
KPD3 120606Z 02006KT 10/06 A303 RMK A01 T00990059  RH  076%=      5-min Rain = 0
KPD3 120607Z 02007KT 10/06 A303 RMK A01 T00990059  RH  076%=      5-min Rain = 0
KPD3 120608Z 02007KT 10/06 A303 RMK A01 T00990059  RH  076%=      5-min Rain = 0
KPD3 120609Z 02008KT 10/06 A303 RMK A01 T00990057  RH  075%=      5-min Rain = 0
KPD3 120610Z 02008KT 10/06 A303 RMK A01 T00990058  RH  075%=      5-min Rain = 0
KPD3 120611Z 02008KT 10/06 A303 RMK A01 T00990058  RH  075%=      5-min Rain = 0
KPD3 120612Z 02008KT 10/06 A303 RMK A01 T00990058  RH  075%=      5-min Rain = 0
KPD3 120613Z 03006KT 10/06 A303 RMK A01 T00990058  RH  075%=      5-min Rain = 0
KPD3 120614Z 02007KT 10/06 A303 RMK A01 T00990059  RH  076%=      5-min Rain = 0
KPD3 120615Z 03007KT 10/06 A3031 RMK A01 T00990058  RH  076%=      5-min Rain = 0
KPD3 120616Z 03006KT 10/06 A3031 RMK A01 T00990058  RH  076%=      5-min Rain = 0
KPD3 120617Z 03009KT 10/06 A3031 RMK A01 T00990058  RH  076%=      5-min Rain = 0
KPD3 120618Z 03007KT 10/06 A3031 RMK A01 T00990058  RH  076%=      5-min Rain = 0
KPD3 120619Z 03007KT 10/06 A3031 RMK A01 T00990058  RH  076%=      5-min Rain = 0
KPD3 120620Z 03008KT 10/06 A3031 RMK A01 T00990058  RH  076%=      5-min Rain = 0
KPD3 120621Z 03008KT 10/06 A3031 RMK A01 T00990058  RH  076%=      5-min Rain = 0
KPD3 120622Z 03008KT 10/06 A303 RMK A01 T00990059  RH  076%=      5-min Rain = 0
KPD3 120623Z 03008KT 10/06 A303 RMK A01 T00980058  RH  076%=      5-min Rain = 0
KPD3 120624Z 02008KT 10/06 A303 RMK A01 T00980058  RH  076%=      5-min Rain = 0
KPD3 120625Z 02009KT 10/06 A303 RMK A01 T00980059  RH  076%=      5-min Rain = 0
KPD3 120626Z 03009KT 10/06 A303 RMK A01 T00980058  RH  076%=      5-min Rain = 0
KPD3 120627Z 03008KT 10/06 A303 RMK A01 T00980058  RH  076%=      5-min Rain = 0
KPD3 120628Z 03009KT 10/06 A303 RMK A01 T00980058  RH  076%=      5-min Rain = 0
KPD3 120629Z 03008KT 10/06 A303 RMK A01 T00970057  RH  076%=      5-min Rain = 0
KPD3 120630Z 03008KT 10/06 A303 RMK A01 T00970058  RH  076%=      5-min Rain = 0
KPD3 120631Z 03007KT 10/06 A303 RMK A01 T00960057  RH  077%=      5-min Rain = 0
KPD3 120632Z 03007KT 10/06 A303 RMK A01 T00960057  RH  077%=      5-min Rain = 0
KPD3 120633Z 03006KT 10/06 A303 RMK A01 T00950057  RH  077%=      5-min Rain = 0
KPD3 120634Z 03007KT 10/06 A303 RMK A01 T00950057  RH  077%=      5-min Rain = 0
KPD3 120635Z 03007KT 09/06 A303 RMK A01 T00940057  RH  077%=      5-min Rain = 0
KPD3 120636Z 03006KT 09/06 A303 RMK A01 T00940057  RH  078%=      5-min Rain = 0
KPD3 120637Z 03006KT 09/06 A303 RMK A01 T00940057  RH  078%=      5-min Rain = 0
KPD3 120638Z 03007KT 09/06 A303 RMK A01 T00930057  RH  078%=      5-min Rain = 0
KPD3 120639Z 03006KT 09/06 A303 RMK A01 T00920057  RH  079%=      5-min Rain = 0
KPD3 120640Z 02006KT 09/06 A303 RMK A01 T00910057  RH  079%=      5-min Rain = 0
KPD3 120641Z 02007KT 09/06 A303 RMK A01 T00910057  RH  079%=      5-min Rain = 0
KPD3 120642Z 03007KT 09/06 A303 RMK A01 T00900056  RH  079%=      5-min Rain = 0
KPD3 120643Z 02007KT 09/06 A303 RMK A01 T00900056  RH  079%=      5-min Rain = 0
KPD3 120644Z 02007KT 09/06 A303 RMK A01 T00890055  RH  080%=      5-min Rain = 0
KPD3 120645Z 02007KT 09/06 A303 RMK A01 T00890056  RH  080%=      5-min Rain = 0
KPD3 120646Z 02007KT 09/06 A303 RMK A01 T00880055  RH  080%=      5-min Rain = 0
KPD3 120647Z 02006KT 09/06 A303 RMK A01 T00870055  RH  080%=      5-min Rain = 0
KPD3 120648Z 02006KT 09/06 A303 RMK A01 T00870055  RH  080%=      5-min Rain = 0
KPD3 120649Z 02006KT 09/06 A303 RMK A01 T00870055  RH  080%=      5-min Rain = 0
KPD3 120650Z 02006KT 09/05 A303 RMK A01 T00860054  RH  081%=      5-min Rain = 0
KPD3 120651Z 01006KT 08/05 A303 RMK A01 T00840054  RH  081%=      5-min Rain = 0
KPD3 120652Z 01006KT 08/05 A3031 RMK A01 T00830053  RH  082%=      5-min Rain = 0
KPD3 120653Z 01006KT 08/05 A3031 RMK A01 T00830053  RH  082%=      5-min Rain = 0
KPD3 120654Z 01006KT 08/05 A3031 RMK A01 T00830054  RH  082%=      5-min Rain = 0
KPD3 120655Z 00005KT 08/05 A3031 RMK A01 T00820053  RH  082%=      5-min Rain = 0
KPD3 120656Z 00005KT 08/05 A3031 RMK A01 T00810053  RH  082%=      5-min Rain = 0
KPD3 120657Z 00005KT 08/05 A3031 RMK A01 T00800052  RH  083%=      5-min Rain = 0
KPD3 120658Z 00006KT 08/05 A3031 RMK A01 T00790052  RH  083%=      5-min Rain = 0
KPD3 120659Z 00006KT 08/05 A3031 RMK A01 T00780052  RH  083%=      5-min Rain = 0
KPD3 120700Z 00006KT 08/05 A3031 RMK A01 T00770051  RH  084%=      5-min Rain = 0
KPD3 120701Z 00006KT 08/05 A3031 RMK A01 T00760051  RH  084%=      5-min Rain = 0
KPD3 120702Z 00006KT 08/05 A3031 RMK A01 T00750051  RH  085%=      5-min Rain = 0
KPD3 120703Z 00006KT 07/05 A3031 RMK A01 T00740051  RH  085%=      5-min Rain = 0
KPD3 120704Z 00006KT 07/05 A303 RMK A01 T00740051  RH  085%=      5-min Rain = 0
KPD3 120705Z 00006KT 07/05 A303 RMK A01 T00730050  RH  085%=      5-min Rain = 0
KPD3 120706Z 00006KT 07/05 A303 RMK A01 T00730050  RH  086%=      5-min Rain = 0
KPD3 120707Z 36006KT 07/05 A303 RMK A01 T00720050  RH  086%=      5-min Rain = 0
KPD3 120708Z 36006KT 07/05 A303 RMK A01 T00710050  RH  086%=      5-min Rain = 0
KPD3 120709Z 36006KT 07/05 A303 RMK A01 T00710050  RH  087%=      5-min Rain = 0
KPD3 120710Z 35006KT 07/05 A303 RMK A01 T00710050  RH  087%=      5-min Rain = 0
KPD3 120711Z 35006KT 07/05 A303 RMK A01 T00700050  RH  087%=      5-min Rain = 0
KPD3 120712Z 35006KT 07/05 A303 RMK A01 T00700050  RH  087%=      5-min Rain = 0
KPD3 120713Z 35006KT 07/05 A303 RMK A01 T00700050  RH  088%=      5-min Rain = 0
KPD3 120714Z 35006KT 07/05 A3031 RMK A01 T00690050  RH  088%=      5-min Rain = 0
KPD3 120715Z 35006KT 07/05 A3031 RMK A01 T00690050  RH  088%=      5-min Rain = 0
KPD3 120716Z 35006KT 07/05 A3031 RMK A01 T00700051  RH  088%=      5-min Rain = 0
KPD3 120717Z 35006KT 07/05 A3031 RMK A01 T00690050  RH  088%=      5-min Rain = 0
KPD3 120718Z 35006KT 07/05 A3031 RMK A01 T00690050  RH  088%=      5-min Rain = 0
KPD3 120719Z 34006KT 07/05 A3031 RMK A01 T00680050  RH  088%=      5-min Rain = 0
KPD3 120720Z 35006KT 07/05 A3031 RMK A01 T00680050  RH  088%=      5-min Rain = 0
KPD3 120721Z 35005KT 07/05 A3031 RMK A01 T00680050  RH  089%=      5-min Rain = 0
KPD3 120722Z 35006KT 07/05 A3031 RMK A01 T00680050  RH  089%=      5-min Rain = 0
KPD3 120723Z 35006KT 07/05 A3031 RMK A01 T00670050  RH  089%=      5-min Rain = 0
KPD3 120724Z 36006KT 07/05 A303 RMK A01 T00670050  RH  089%=      5-min Rain = 0
KPD3 120725Z 00005KT 07/05 A303 RMK A01 T00670050  RH  089%=      5-min Rain = 0
KPD3 120726Z 00005KT 07/05 A303 RMK A01 T00670050  RH  089%=      5-min Rain = 0
KPD3 120727Z 00005KT 07/05 A303 RMK A01 T00670050  RH  089%=      5-min Rain = 0
KPD3 120728Z 00005KT 07/05 A3031 RMK A01 T00670050  RH  089%=      5-min Rain = 0
KPD3 120729Z 36005KT 07/05 A3031 RMK A01 T00670050  RH  089%=      5-min Rain = 0
KPD3 120730Z 35005KT 07/05 A3031 RMK A01 T00670050  RH  089%=      5-min Rain = 0
KPD3 120731Z 35004KT 07/05 A3031 RMK A01 T00680050  RH  089%=      5-min Rain = 0
KPD3 120732Z 35004KT 07/05 A3031 RMK A01 T00680050  RH  088%=      5-min Rain = 0
KPD3 120733Z 35004KT 07/05 A3031 RMK A01 T00680050  RH  088%=      5-min Rain = 0
KPD3 120734Z 34004KT 07/05 A3031 RMK A01 T00680050  RH  088%=      5-min Rain = 0
KPD3 120735Z 33004KT 07/05 A3031 RMK A01 T00690050  RH  088%=      5-min Rain = 0
KPD3 120736Z 34004KT 07/05 A3031 RMK A01 T00680049  RH  088%=      5-min Rain = 0
KPD3 120737Z 34004KT 07/05 A3031 RMK A01 T00670048  RH  087%=      5-min Rain = 0
KPD3 120738Z 33003KT 07/05 A3031 RMK A01 T00650045  RH  087%=      5-min Rain = 0
KPD3 120739Z 33004KT 06/04 A3031 RMK A01 T00630044  RH  087%=      5-min Rain = 0
KPD3 120740Z 34004KT 06/04 A3031 RMK A01 T00610043  RH  088%=      5-min Rain = 0
KPD3 120741Z 35004KT 06/04 A3031 RMK A01 T00590042  RH  089%=      5-min Rain = 0
KPD3 120742Z 35004KT 06/04 A3031 RMK A01 T00570041  RH  089%=      5-min Rain = 0
KPD3 120743Z 35004KT 06/04 A3031 RMK A01 T00560041  RH  090%=      5-min Rain = 0
KPD3 120744Z 35004KT 06/04 A3031 RMK A01 T00560042  RH  091%=      5-min Rain = 0
KPD3 120745Z 34004KT 06/04 A3031 RMK A01 T00560042  RH  091%=      5-min Rain = 0
KPD3 120746Z 35004KT 06/04 A3031 RMK A01 T00550042  RH  091%=      5-min Rain = 0
KPD3 120747Z 34004KT 06/04 A3031 RMK A01 T00550041  RH  091%=      5-min Rain = 0
KPD3 120748Z 34003KT 05/04 A3031 RMK A01 T00530039  RH  091%=      5-min Rain = 0
KPD3 120749Z 34003KT 05/04 A3032 RMK A01 T00530039  RH  091%=      5-min Rain = 0
KPD3 120750Z 33003KT 05/04 A3032 RMK A01 T00520041  RH  092%=      5-min Rain = 0
KPD3 120751Z 32003KT 05/04 A3032 RMK A01 T00530043  RH  093%=      5-min Rain = 0
KPD3 120752Z 32004KT 05/04 A3032 RMK A01 T00540044  RH  093%=      5-min Rain = 0
KPD3 120753Z 31004KT 05/04 A3032 RMK A01 T00540043  RH  093%=      5-min Rain = 0
KPD3 120754Z 30004KT 05/04 A3032 RMK A01 T00530042  RH  092%=      5-min Rain = 0
KPD3 120755Z 31005KT 05/04 A3032 RMK A01 T00530042  RH  093%=      5-min Rain = 0
KPD3 120756Z 30005KT 05/04 A3032 RMK A01 T00530043  RH  093%=      5-min Rain = 0
KPD3 120757Z 29005KT 05/05 A3032 RMK A01 T00540045  RH  094%=      5-min Rain = 0
KPD3 120758Z 30005KT 06/05 A3032 RMK A01 T00550047  RH  095%=      5-min Rain = 0
KPD3 120759Z 30005KT 06/05 A3032 RMK A01 T00570049  RH  095%=      5-min Rain = 0
KPD3 120800Z 30005KT 06/05 A3032 RMK A01 T00580050  RH  095%=      5-min Rain = 0
KPD3 120801Z 30005KT 06/05 A3032 RMK A01 T00590051  RH  095%=      5-min Rain = 0
KPD3 120802Z 30005KT 06/05 A3032 RMK A01 T00600052  RH  095%=      5-min Rain = 0
KPD3 120803Z 30004KT 06/05 A3032 RMK A01 T00610053  RH  094%=      5-min Rain = 0
KPD3 120804Z 30004KT 06/05 A3032 RMK A01 T00620053  RH  094%=      5-min Rain = 0
KPD3 120805Z 29004KT 06/05 A3032 RMK A01 T00620053  RH  094%=      5-min Rain = 0
KPD3 120806Z 29005KT 06/05 A3033 RMK A01 T00630054  RH  094%=      5-min Rain = 0
KPD3 120807Z 29005KT 06/05 A3033 RMK A01 T00630054  RH  094%=      5-min Rain = 0
KPD3 120808Z 29006KT 06/05 A3033 RMK A01 T00640054  RH  094%=      5-min Rain = 0
KPD3 120809Z 29006KT 06/06 A3033 RMK A01 T00640055  RH  094%=      5-min Rain = 0
KPD3 120810Z 28006KT 07/06 A3033 RMK A01 T00650055  RH  093%=      5-min Rain = 0
KPD3 120811Z 27006KT 07/06 A3033 RMK A01 T00650056  RH  094%=      5-min Rain = 0
KPD3 120812Z 26006KT 07/06 A3033 RMK A01 T00660057  RH  094%=      5-min Rain = 0
KPD3 120813Z 26007KT 07/06 A3034 RMK A01 T00670057  RH  094%=      5-min Rain = 0
KPD3 120814Z 26007KT 07/06 A3034 RMK A01 T00680059  RH  094%=      5-min Rain = 0
KPD3 120815Z 26007KT 07/06 A3034 RMK A01 T00680060  RH  094%=      5-min Rain = 0
KPD3 120816Z 27007KT 07/06 A3034 RMK A01 T00690060  RH  094%=      5-min Rain = 0
KPD3 120817Z 27007KT 07/06 A3034 RMK A01 T00700061  RH  094%=      5-min Rain = 0
KPD3 120818Z 27007KT 07/06 A3034 RMK A01 T00700061  RH  094%=      5-min Rain = 0
KPD3 120819Z 27006KT 07/06 A3034 RMK A01 T00710061  RH  093%=      5-min Rain = 0
KPD3 120820Z 28006KT 07/06 A3034 RMK A01 T00720061  RH  093%=      5-min Rain = 0
KPD3 120821Z 28006KT 07/06 A3034 RMK A01 T00720061  RH  093%=      5-min Rain = 0
KPD3 120822Z 29006KT 07/06 A3034 RMK A01 T00720061  RH  092%=      5-min Rain = 0
KPD3 120823Z 29005KT 07/06 A3034 RMK A01 T00730061  RH  092%=      5-min Rain = 0
KPD3 120824Z 29005KT 07/06 A3034 RMK A01 T00740061  RH  092%=      5-min Rain = 0
KPD3 120825Z 30004KT 07/06 A3033 RMK A01 T00740061  RH  091%=      5-min Rain = 0
KPD3 120826Z 31003KT 08/06 A3033 RMK A01 T00750061  RH  091%=      5-min Rain = 0
KPD3 120827Z 33003KT 08/06 A3033 RMK A01 T00750062  RH  091%=      5-min Rain = 0
KPD3 120828Z 35003KT 08/06 A3032 RMK A01 T00750062  RH  092%=      5-min Rain = 0
KPD3 120829Z 35004KT 08/06 A3032 RMK A01 T00750062  RH  092%=      5-min Rain = 0
KPD3 120830Z 36004KT 08/06 A3032 RMK A01 T00760063  RH  092%=      5-min Rain = 0
KPD3 120831Z 00004KT 08/06 A3032 RMK A01 T00760064  RH  092%=      5-min Rain = 0
KPD3 120832Z 01005KT 08/06 A3031 RMK A01 T00770064  RH  091%=      5-min Rain = 0
KPD3 120833Z 01006KT 08/06 A3031 RMK A01 T00770064  RH  091%=      5-min Rain = 0
KPD3 120834Z 01006KT 08/06 A3031 RMK A01 T00780064  RH  091%=      5-min Rain = 0
KPD3 120835Z 02006KT 08/06 A303 RMK A01 T00790064  RH  090%=      5-min Rain = 0
KPD3 120836Z 02006KT 08/06 A303 RMK A01 T00800064  RH  090%=      5-min Rain = 0
KPD3 120837Z 03006KT 08/07 A303 RMK A01 T00800065  RH  090%=      5-min Rain = 0
KPD3 120838Z 03007KT 08/07 A303 RMK A01 T00800066  RH  091%=      5-min Rain = 0
KPD3 120839Z 03006KT 08/07 A303 RMK A01 T00790066  RH  091%=      5-min Rain = 0
KPD3 120840Z 03005KT 08/07 A303 RMK A01 T00790065  RH  091%=      5-min Rain = 0
KPD3 120841Z 03004KT 08/07 A303 RMK A01 T00790066  RH  092%=      5-min Rain = 0.01
KPD3 120842Z 02003KT 08/07 A3031 RMK A01 T00790067  RH  092%=      5-min Rain = 0
KPD3 120843Z 01002KT 08/07 A3031 RMK A01 T00780067  RH  092%=      5-min Rain = 0
KPD3 120844Z 34002KT 08/07 A3031 RMK A01 T00780067  RH  093%=      5-min Rain = 0
KPD3 120845Z 33002KT 08/07 A3031 RMK A01 T00780067  RH  093%=      5-min Rain = 0
KPD3 120846Z 32002KT 08/07 A3032 RMK A01 T00780067  RH  093%=      5-min Rain = 0.01
KPD3 120847Z 30002KT 08/07 A3032 RMK A01 T00780067  RH  093%=      5-min Rain = 0
KPD3 120848Z 30002KT 08/07 A3032 RMK A01 T00780068  RH  093%=      5-min Rain = 0
KPD3 120849Z 29003KT 08/07 A3032 RMK A01 T00780068  RH  093%=      5-min Rain = 0
KPD3 120850Z 30003KT 08/07 A3032 RMK A01 T00780068  RH  094%=      5-min Rain = 0
KPD3 120851Z 31003KT 08/07 A3032 RMK A01 T00780068  RH  093%=      5-min Rain = 0
KPD3 120852Z 30003KT 08/07 A3032 RMK A01 T00780068  RH  093%=      5-min Rain = 0
KPD3 120853Z 31002KT 08/07 A3032 RMK A01 T00780067  RH  093%=      5-min Rain = 0
KPD3 120854Z 31002KT 08/07 A3032 RMK A01 T00780067  RH  093%=      5-min Rain = 0
KPD3 120855Z 32003KT 08/07 A3032 RMK A01 T00780067  RH  093%=      5-min Rain = 0
KPD3 120856Z 31002KT 08/07 A3032 RMK A01 T00780067  RH  093%=      5-min Rain = 0
KPD3 120857Z 31003KT 08/07 A3032 RMK A01 T00780067  RH  093%=      5-min Rain = 0
KPD3 120858Z 31004KT 08/07 A3033 RMK A01 T00780067  RH  093%=      5-min Rain = 0
KPD3 120859Z 30005KT 08/07 A3033 RMK A01 T00780067  RH  093%=      5-min Rain = 0
KPD3 120900Z 30006KT 08/07 A3033 RMK A01 T00780068  RH  093%=      5-min Rain = 0
KPD3 120901Z 30006KT 08/07 A3033 RMK A01 T00770068  RH  094%=      5-min Rain = 0
KPD3 120902Z 30006KT 08/07 A3034 RMK A01 T00770068  RH  094%=      5-min Rain = 0.01
KPD3 120903Z 30006KT 08/07 A3033 RMK A01 T00770068  RH  094%=      5-min Rain = 0
KPD3 120904Z 30005KT 08/07 A3033 RMK A01 T00770068  RH  094%=      5-min Rain = 0
KPD3 120905Z 30004KT 08/07 A3033 RMK A01 T00770068  RH  094%=      5-min Rain = 0
KPD3 120906Z 30004KT 08/07 A3033 RMK A01 T00770068  RH  094%=      5-min Rain = 0
KPD3 120907Z 30004KT 08/07 A3033 RMK A01 T00760067  RH  094%=      5-min Rain = 0
KPD3 120908Z 30005KT 08/07 A3033 RMK A01 T00760067  RH  094%=      5-min Rain = 0
KPD3 120909Z 30005KT 08/07 A3033 RMK A01 T00760067  RH  094%=      5-min Rain = 0
KPD3 120910Z 31005KT 08/07 A3033 RMK A01 T00750066  RH  094%=      5-min Rain = 0
KPD3 120911Z 30005KT 08/07 A3033 RMK A01 T00750065  RH  094%=      5-min Rain = 0
KPD3 120912Z 30005KT 07/07 A3033 RMK A01 T00740065  RH  094%=      5-min Rain = 0
KPD3 120913Z 31005KT 07/07 A3033 RMK A01 T00740065  RH  094%=      5-min Rain = 0
KPD3 120914Z 31005KT 07/06 A3033 RMK A01 T00730064  RH  094%=      5-min Rain = 0
KPD3 120915Z 31005KT 07/06 A3033 RMK A01 T00720064  RH  094%=      5-min Rain = 0
KPD3 120916Z 31005KT 07/06 A3033 RMK A01 T00720063  RH  094%=      5-min Rain = 0
KPD3 120917Z 31005KT 07/06 A3033 RMK A01 T00720063  RH  094%=      5-min Rain = 0
KPD3 120918Z 31004KT 07/06 A3033 RMK A01 T00710063  RH  094%=      5-min Rain = 0
KPD3 120919Z 31004KT 07/06 A3033 RMK A01 T00710063  RH  095%=      5-min Rain = 0
KPD3 120920Z 31004KT 07/06 A3033 RMK A01 T00710063  RH  095%=      5-min Rain = 0
KPD3 120921Z 31003KT 07/06 A3033 RMK A01 T00710062  RH  095%=      5-min Rain = 0
KPD3 120922Z 31004KT 07/06 A3033 RMK A01 T00710063  RH  094%=      5-min Rain = 0
KPD3 120923Z 31004KT 07/06 A3033 RMK A01 T00710062  RH  094%=      5-min Rain = 0
KPD3 120924Z 32004KT 07/06 A3033 RMK A01 T00710062  RH  094%=      5-min Rain = 0
KPD3 120925Z 32004KT 07/06 A3033 RMK A01 T00710061  RH  094%=      5-min Rain = 0
KPD3 120926Z 33004KT 07/06 A3033 RMK A01 T00710061  RH  094%=      5-min Rain = 0
KPD3 120927Z 33004KT 07/06 A3033 RMK A01 T00700061  RH  094%=      5-min Rain = 0
KPD3 120928Z 33004KT 07/06 A3033 RMK A01 T00700061  RH  094%=      5-min Rain = 0
KPD3 120929Z 33004KT 07/06 A3033 RMK A01 T00690061  RH  094%=      5-min Rain = 0
KPD3 120930Z 32005KT 07/06 A3033 RMK A01 T00690061  RH  095%=      5-min Rain = 0
KPD3 120931Z 32004KT 07/06 A3033 RMK A01 T00690061  RH  095%=      5-min Rain = 0
KPD3 120932Z 32004KT 07/06 A3033 RMK A01 T00680060  RH  095%=      5-min Rain = 0
KPD3 120933Z 32004KT 07/06 A3033 RMK A01 T00670060  RH  095%=      5-min Rain = 0
KPD3 120934Z 32004KT 07/06 A3033 RMK A01 T00680061  RH  095%=      5-min Rain = 0
KPD3 120935Z 32004KT 07/06 A3033 RMK A01 T00680061  RH  096%=      5-min Rain = 0
KPD3 120936Z 32004KT 07/06 A3033 RMK A01 T00680061  RH  096%=      5-min Rain = 0
KPD3 120937Z 32004KT 07/06 A3032 RMK A01 T00680061  RH  096%=      5-min Rain = 0
KPD3 120938Z 32003KT 07/06 A3032 RMK A01 T00680061  RH  096%=      5-min Rain = 0
KPD3 120939Z 33003KT 07/06 A3032 RMK A01 T00670061  RH  096%=      5-min Rain = 0
KPD3 120940Z 33003KT 07/06 A3032 RMK A01 T00680062  RH  096%=      5-min Rain = 0
KPD3 120941Z 33003KT 07/06 A3032 RMK A01 T00680062  RH  096%=      5-min Rain = 0
KPD3 120942Z 34003KT 07/06 A3032 RMK A01 T00680062  RH  096%=      5-min Rain = 0
KPD3 120943Z 35003KT 07/06 A3031 RMK A01 T00680062  RH  096%=      5-min Rain = 0
KPD3 120944Z 35004KT 07/06 A3031 RMK A01 T00680063  RH  097%=      5-min Rain = 0
KPD3 120945Z 35004KT 07/06 A3031 RMK A01 T00690064  RH  097%=      5-min Rain = 0
KPD3 120946Z 35005KT 07/06 A3031 RMK A01 T00690064  RH  097%=      5-min Rain = 0
KPD3 120947Z 35005KT 07/07 A3031 RMK A01 T00690065  RH  097%=      5-min Rain = 0
KPD3 120948Z 35005KT 07/07 A3031 RMK A01 T00690065  RH  097%=      5-min Rain = 0
KPD3 120949Z 35005KT 07/07 A3031 RMK A01 T00700066  RH  097%=      5-min Rain = 0
KPD3 120950Z 35004KT 07/07 A3031 RMK A01 T00700066  RH  097%=      5-min Rain = 0
KPD3 120951Z 36003KT 07/07 A3031 RMK A01 T00710066  RH  097%=      5-min Rain = 0
KPD3 120952Z 36003KT 07/07 A3031 RMK A01 T00710067  RH  097%=      5-min Rain = 0
KPD3 120953Z 00003KT 07/07 A3031 RMK A01 T00710067  RH  097%=      5-min Rain = 0
KPD3 120954Z 00002KT 07/07 A3031 RMK A01 T00720067  RH  097%=      5-min Rain = 0
KPD3 120955Z 01001KT 07/07 A3031 RMK A01 T00720067  RH  097%=      5-min Rain = 0
KPD3 120956Z 01002KT 07/07 A303 RMK A01 T00720067  RH  097%=      5-min Rain = 0
KPD3 120957Z 01002KT 07/07 A303 RMK A01 T00730068  RH  097%=      5-min Rain = 0
KPD3 120958Z 01003KT 07/07 A303 RMK A01 T00730067  RH  096%=      5-min Rain = 0
KPD3 120959Z 01002KT 07/07 A3031 RMK A01 T00720067  RH  096%=      5-min Rain = 0
KPD3 121000Z 36002KT 07/07 A3031 RMK A01 T00730067  RH  096%=      5-min Rain = 0
KPD3 121001Z 35002KT 07/07 A3031 RMK A01 T00730067  RH  096%=      5-min Rain = 0
KPD3 121002Z 34002KT 07/07 A3031 RMK A01 T00740068  RH  096%=      5-min Rain = 0
KPD3 121003Z 34002KT 07/07 A3031 RMK A01 T00730067  RH  096%=      5-min Rain = 0
KPD3 121004Z 34002KT 07/07 A3031 RMK A01 T00740068  RH  096%=      5-min Rain = 0
KPD3 121005Z 35002KT 07/07 A3031 RMK A01 T00740068  RH  096%=      5-min Rain = 0
KPD3 121006Z 35002KT 07/07 A3031 RMK A01 T00740067  RH  096%=      5-min Rain = 0
KPD3 121007Z 35002KT 07/07 A3031 RMK A01 T00730067  RH  096%=      5-min Rain = 0
KPD3 121008Z 00002KT 07/07 A3031 RMK A01 T00730067  RH  096%=      5-min Rain = 0
KPD3 121009Z 36002KT 07/07 A3031 RMK A01 T00730067  RH  096%=      5-min Rain = 0
KPD3 121010Z 35002KT 07/07 A3031 RMK A01 T00740067  RH  096%=      5-min Rain = 0
KPD3 121011Z 34003KT 07/07 A3032 RMK A01 T00740068  RH  096%=      5-min Rain = 0
KPD3 121012Z 34003KT 07/07 A3032 RMK A01 T00740068  RH  096%=      5-min Rain = 0
KPD3 121013Z 33004KT 07/07 A3032 RMK A01 T00740068  RH  096%=      5-min Rain = 0
KPD3 121014Z 33005KT 07/07 A3032 RMK A01 T00740068  RH  096%=      5-min Rain = 0
KPD3 121015Z 33006KT 07/07 A3032 RMK A01 T00740068  RH  096%=      5-min Rain = 0
KPD3 121016Z 33006KT 07/07 A3033 RMK A01 T00740068  RH  096%=      5-min Rain = 0
KPD3 121017Z 32006KT 07/07 A3033 RMK A01 T00740068  RH  096%=      5-min Rain = 0
KPD3 121018Z 32006KT 07/07 A3033 RMK A01 T00740068  RH  096%=      5-min Rain = 0
KPD3 121019Z 32006KT 07/07 A3033 RMK A01 T00740067  RH  096%=      5-min Rain = 0
KPD3 121020Z 32006KT 07/07 A3033 RMK A01 T00740067  RH  096%=      5-min Rain = 0
KPD3 121021Z 32006KT 07/07 A3033 RMK A01 T00730067  RH  095%=      5-min Rain = 0
KPD3 121022Z 32007KT 07/07 A3033 RMK A01 T00740067  RH  095%=      5-min Rain = 0
KPD3 121023Z 32007KT 07/07 A3033 RMK A01 T00740067  RH  095%=      5-min Rain = 0
KPD3 121024Z 33007KT 07/07 A3033 RMK A01 T00730066  RH  095%=      5-min Rain = 0
KPD3 121025Z 33007KT 07/07 A3033 RMK A01 T00740066  RH  095%=      5-min Rain = 0
KPD3 121026Z 33007KT 07/07 A3033 RMK A01 T00740066  RH  095%=      5-min Rain = 0
KPD3 121027Z 33006KT 07/07 A3033 RMK A01 T00740066  RH  095%=      5-min Rain = 0
KPD3 121028Z 33006KT 07/07 A3033 RMK A01 T00740066  RH  094%=      5-min Rain = 0
KPD3 121029Z 33006KT 07/07 A3033 RMK A01 T00740065  RH  094%=      5-min Rain = 0
KPD3 121030Z 33006KT 07/07 A3033 RMK A01 T00740065  RH  094%=      5-min Rain = 0
KPD3 121031Z 33007KT 07/07 A3033 RMK A01 T00740065  RH  094%=      5-min Rain = 0
KPD3 121032Z 33007KT 07/07 A3033 RMK A01 T00740065  RH  094%=      5-min Rain = 0
KPD3 121033Z 34006KT 07/07 A3033 RMK A01 T00740065  RH  094%=      5-min Rain = 0
KPD3 121034Z 34007KT 08/07 A3033 RMK A01 T00750065  RH  093%=      5-min Rain = 0
KPD3 121035Z 34006KT 08/07 A3033 RMK A01 T00750065  RH  093%=      5-min Rain = 0
KPD3 121036Z 34006KT 08/07 A3033 RMK A01 T00750065  RH  093%=      5-min Rain = 0
KPD3 121037Z 34006KT 08/07 A3033 RMK A01 T00750065  RH  093%=      5-min Rain = 0
KPD3 121038Z 34006KT 08/07 A3033 RMK A01 T00750065  RH  093%=      5-min Rain = 0
KPD3 121039Z 34006KT 08/07 A3033 RMK A01 T00750065  RH  093%=      5-min Rain = 0
KPD3 121040Z 34006KT 08/06 A3033 RMK A01 T00750064  RH  093%=      5-min Rain = 0
KPD3 121041Z 34006KT 08/06 A3033 RMK A01 T00750064  RH  093%=      5-min Rain = 0
KPD3 121042Z 34005KT 08/06 A3033 RMK A01 T00750064  RH  093%=      5-min Rain = 0
KPD3 121043Z 34006KT 08/06 A3033 RMK A01 T00750064  RH  093%=      5-min Rain = 0
KPD3 121044Z 34006KT 08/06 A3033 RMK A01 T00750064  RH  093%=      5-min Rain = 0
KPD3 121045Z 34005KT 08/07 A3033 RMK A01 T00760065  RH  093%=      5-min Rain = 0
KPD3 121046Z 34005KT 08/06 A3033 RMK A01 T00750064  RH  093%=      5-min Rain = 0
KPD3 121047Z 33005KT 08/06 A3034 RMK A01 T00760064  RH  092%=      5-min Rain = 0
KPD3 121048Z 33004KT 08/06 A3034 RMK A01 T00760064  RH  092%=      5-min Rain = 0
KPD3 121049Z 32004KT 08/06 A3034 RMK A01 T00760064  RH  092%=      5-min Rain = 0
KPD3 121050Z 32005KT 08/06 A3034 RMK A01 T00760064  RH  092%=      5-min Rain = 0
KPD3 121051Z 32005KT 08/06 A3034 RMK A01 T00770064  RH  092%=      5-min Rain = 0
KPD3 121052Z 32005KT 08/06 A3034 RMK A01 T00770064  RH  092%=      5-min Rain = 0.01
KPD3 121053Z 33005KT 08/06 A3034 RMK A01 T00770064  RH  092%=      5-min Rain = 0
KPD3 121054Z 33005KT 08/07 A3034 RMK A01 T00770065  RH  092%=      5-min Rain = 0
KPD3 121055Z 33005KT 08/07 A3034 RMK A01 T00770065  RH  092%=      5-min Rain = 0
KPD3 121056Z 32005KT 08/07 A3034 RMK A01 T00760065  RH  093%=      5-min Rain = 0
KPD3 121057Z 32005KT 08/07 A3034 RMK A01 T00760065  RH  093%=      5-min Rain = 0
KPD3 121058Z 33005KT 08/07 A3034 RMK A01 T00760066  RH  093%=      5-min Rain = 0
KPD3 121059Z 33004KT 08/07 A3034 RMK A01 T00760066  RH  093%=      5-min Rain = 0
KPD3 121100Z 32004KT 08/07 A3034 RMK A01 T00760066  RH  093%=      5-min Rain = 0
KPD3 121101Z 33004KT 08/07 A3034 RMK A01 T00760066  RH  093%=      5-min Rain = 0
KPD3 121102Z 33004KT 08/07 A3034 RMK A01 T00760065  RH  093%=      5-min Rain = 0
KPD3 121103Z 33004KT 08/07 A3034 RMK A01 T00760065  RH  093%=      5-min Rain = 0
KPD3 121104Z 33004KT 08/07 A3035 RMK A01 T00760065  RH  093%=      5-min Rain = 0
KPD3 121105Z 33004KT 08/07 A3035 RMK A01 T00760065  RH  093%=      5-min Rain = 0
KPD3 121106Z 33004KT 08/07 A3035 RMK A01 T00760065  RH  093%=      5-min Rain = 0
KPD3 121107Z 33005KT 08/07 A3035 RMK A01 T00760065  RH  093%=      5-min Rain = 0
KPD3 121108Z 33005KT 08/07 A3035 RMK A01 T00760065  RH  093%=      5-min Rain = 0
KPD3 121109Z 34005KT 08/07 A3034 RMK A01 T00760065  RH  093%=      5-min Rain = 0
KPD3 121110Z 34005KT 08/07 A3034 RMK A01 T00760065  RH  093%=      5-min Rain = 0
KPD3 121111Z 34004KT 08/07 A3034 RMK A01 T00760065  RH  093%=      5-min Rain = 0
KPD3 121112Z 34005KT 08/07 A3034 RMK A01 T00760065  RH  093%=      5-min Rain = 0
KPD3 121113Z 34004KT 08/06 A3035 RMK A01 T00760064  RH  092%=      5-min Rain = 0
KPD3 121114Z 33004KT 08/07 A3035 RMK A01 T00760065  RH  092%=      5-min Rain = 0
KPD3 121115Z 33004KT 08/07 A3035 RMK A01 T00760065  RH  093%=      5-min Rain = 0
KPD3 121116Z 33004KT 08/07 A3035 RMK A01 T00760065  RH  093%=      5-min Rain = 0
KPD3 121117Z 33004KT 08/07 A3035 RMK A01 T00760065  RH  093%=      5-min Rain = 0
KPD3 121118Z 33004KT 08/07 A3035 RMK A01 T00760065  RH  093%=      5-min Rain = 0
KPD3 121119Z 34004KT 08/07 A3035 RMK A01 T00760065  RH  093%=      5-min Rain = 0
KPD3 121120Z 34005KT 08/07 A3035 RMK A01 T00760065  RH  093%=      5-min Rain = 0
KPD3 121121Z 34004KT 08/07 A3035 RMK A01 T00760065  RH  093%=      5-min Rain = 0
KPD3 121122Z 34004KT 08/07 A3035 RMK A01 T00760065  RH  093%=      5-min Rain = 0
KPD3 121123Z 34005KT 08/07 A3035 RMK A01 T00760065  RH  093%=      5-min Rain = 0
KPD3 121124Z 34004KT 08/07 A3035 RMK A01 T00760066  RH  093%=      5-min Rain = 0
KPD3 121125Z 34004KT 08/07 A3035 RMK A01 T00760066  RH  093%=      5-min Rain = 0
KPD3 121126Z 34004KT 08/07 A3034 RMK A01 T00760066  RH  093%=      5-min Rain = 0
KPD3 121127Z 35004KT 08/07 A3034 RMK A01 T00760066  RH  093%=      5-min Rain = 0
KPD3 121128Z 35003KT 08/07 A3034 RMK A01 T00760066  RH  093%=      5-min Rain = 0
KPD3 121129Z 35003KT 08/07 A3034 RMK A01 T00760066  RH  093%=      5-min Rain = 0
KPD3 121130Z 35003KT 08/07 A3034 RMK A01 T00760066  RH  093%=      5-min Rain = 0
KPD3 121131Z 35003KT 08/07 A3034 RMK A01 T00760066  RH  093%=      5-min Rain = 0
KPD3 121132Z 36003KT 08/07 A3034 RMK A01 T00760065  RH  093%=      5-min Rain = 0
KPD3 121133Z 36004KT 08/07 A3034 RMK A01 T00760066  RH  093%=      5-min Rain = 0
KPD3 121134Z 36004KT 08/07 A3034 RMK A01 T00760066  RH  093%=      5-min Rain = 0
KPD3 121135Z 36004KT 08/07 A3034 RMK A01 T00760065  RH  093%=      5-min Rain = 0
KPD3 121136Z 35004KT 08/07 A3034 RMK A01 T00760065  RH  093%=      5-min Rain = 0
KPD3 121137Z 36004KT 08/07 A3034 RMK A01 T00760065  RH  093%=      5-min Rain = 0
KPD3 121138Z 36004KT 08/07 A3034 RMK A01 T00760065  RH  093%=      5-min Rain = 0
KPD3 121139Z 00004KT 08/07 A3034 RMK A01 T00760065  RH  093%=      5-min Rain = 0
KPD3 121140Z 01004KT 08/06 A3034 RMK A01 T00760064  RH  093%=      5-min Rain = 0
KPD3 121141Z 01004KT 08/06 A3034 RMK A01 T00760064  RH  093%=      5-min Rain = 0
KPD3 121142Z 01004KT 08/06 A3034 RMK A01 T00750064  RH  093%=      5-min Rain = 0
KPD3 121143Z 01003KT 08/06 A3034 RMK A01 T00750064  RH  093%=      5-min Rain = 0
KPD3 121144Z 02003KT 08/07 A3034 RMK A01 T00750065  RH  093%=      5-min Rain = 0
KPD3 121145Z 02004KT 08/07 A3034 RMK A01 T00750065  RH  093%=      5-min Rain = 0
KPD3 121146Z 03003KT 08/07 A3034 RMK A01 T00750065  RH  093%=      5-min Rain = 0
KPD3 121147Z 02004KT 07/07 A3034 RMK A01 T00740065  RH  094%=      5-min Rain = 0
KPD3 121148Z 01004KT 07/07 A3034 RMK A01 T00740065  RH  094%=      5-min Rain = 0
KPD3 121149Z 01004KT 07/07 A3034 RMK A01 T00740065  RH  094%=      5-min Rain = 0
KPD3 121150Z 36004KT 07/07 A3034 RMK A01 T00740065  RH  094%=      5-min Rain = 0
KPD3 121151Z 36004KT 07/07 A3034 RMK A01 T00740065  RH  094%=      5-min Rain = 0
KPD3 121152Z 00004KT 07/07 A3034 RMK A01 T00730065  RH  094%=      5-min Rain = 0
KPD3 121153Z 00004KT 07/07 A3034 RMK A01 T00740065  RH  094%=      5-min Rain = 0
KPD3 121154Z 36004KT 07/07 A3034 RMK A01 T00740065  RH  094%=      5-min Rain = 0
KPD3 121155Z 36004KT 07/07 A3034 RMK A01 T00730065  RH  094%=      5-min Rain = 0
KPD3 121156Z 35004KT 07/06 A3034 RMK A01 T00730064  RH  094%=      5-min Rain = 0
KPD3 121157Z 35004KT 07/06 A3035 RMK A01 T00730064  RH  094%=      5-min Rain = 0
KPD3 121158Z 35004KT 07/06 A3035 RMK A01 T00730064  RH  094%=      5-min Rain = 0
KPD3 121159Z 34004KT 07/06 A3035 RMK A01 T00730064  RH  094%=      5-min Rain = 0
KPD3 121200Z 34004KT 07/06 A3035 RMK A01 T00740064  RH  093%=      5-min Rain = 0
KPD3 121201Z 34004KT 07/06 A3035 RMK A01 T00740064  RH  093%=      5-min Rain = 0
KPD3 121202Z 34004KT 07/06 A3035 RMK A01 T00740064  RH  093%=      5-min Rain = 0
KPD3 121203Z 35004KT 07/06 A3035 RMK A01 T00740064  RH  093%=      5-min Rain = 0
KPD3 121204Z 34005KT 07/06 A3035 RMK A01 T00740063  RH  093%=      5-min Rain = 0
KPD3 121205Z 34005KT 07/06 A3035 RMK A01 T00740063  RH  093%=      5-min Rain = 0
KPD3 121206Z 34005KT 07/06 A3035 RMK A01 T00730063  RH  093%=      5-min Rain = 0
KPD3 121207Z 34005KT 07/06 A3035 RMK A01 T00740064  RH  093%=      5-min Rain = 0
KPD3 121208Z 34005KT 07/06 A3035 RMK A01 T00730063  RH  093%=      5-min Rain = 0
KPD3 121209Z 34005KT 07/06 A3035 RMK A01 T00740064  RH  093%=      5-min Rain = 0
KPD3 121210Z 34005KT 07/06 A3035 RMK A01 T00730064  RH  093%=      5-min Rain = 0
KPD3 121211Z 34006KT 07/06 A3035 RMK A01 T00740064  RH  093%=      5-min Rain = 0
KPD3 121212Z 34005KT 07/06 A3035 RMK A01 T00740064  RH  093%=      5-min Rain = 0
KPD3 121213Z 35005KT 08/07 A3035 RMK A01 T00750065  RH  093%=      5-min Rain = 0
KPD3 121214Z 35004KT 08/07 A3034 RMK A01 T00750065  RH  093%=      5-min Rain = 0
KPD3 121215Z 34004KT 08/07 A3034 RMK A01 T00750065  RH  093%=      5-min Rain = 0
KPD3 121216Z 34004KT 08/07 A3035 RMK A01 T00750065  RH  094%=      5-min Rain = 0
KPD3 121217Z 34004KT 08/07 A3035 RMK A01 T00760066  RH  093%=      5-min Rain = 0
KPD3 121218Z 34005KT 08/07 A3035 RMK A01 T00760066  RH  093%=      5-min Rain = 0
KPD3 121219Z 34005KT 08/07 A3034 RMK A01 T00760067  RH  094%=      5-min Rain = 0
KPD3 121220Z 35005KT 08/07 A3034 RMK A01 T00760067  RH  094%=      5-min Rain = 0
KPD3 121221Z 35005KT 08/07 A3034 RMK A01 T00770067  RH  094%=      5-min Rain = 0
KPD3 121222Z 35005KT 08/07 A3034 RMK A01 T00770067  RH  093%=      5-min Rain = 0
KPD3 121223Z 35004KT 08/07 A3034 RMK A01 T00770067  RH  093%=      5-min Rain = 0
KPD3 121224Z 34004KT 08/07 A3034 RMK A01 T00780067  RH  093%=      5-min Rain = 0
KPD3 121225Z 34004KT 08/07 A3034 RMK A01 T00780067  RH  093%=      5-min Rain = 0
KPD3 121226Z 34004KT 08/07 A3035 RMK A01 T00780067  RH  093%=      5-min Rain = 0
KPD3 121227Z 33005KT 08/07 A3035 RMK A01 T00780067  RH  093%=      5-min Rain = 0
KPD3 121228Z 34005KT 08/07 A3035 RMK A01 T00790067  RH  093%=      5-min Rain = 0
KPD3 121229Z 33005KT 08/07 A3035 RMK A01 T00790067  RH  092%=      5-min Rain = 0
KPD3 121230Z 33005KT 08/07 A3035 RMK A01 T00800067  RH  092%=      5-min Rain = 0
KPD3 121231Z 33005KT 08/07 A3036 RMK A01 T00800067  RH  092%=      5-min Rain = 0
KPD3 121232Z 34005KT 08/07 A3036 RMK A01 T00800068  RH  092%=      5-min Rain = 0
KPD3 121233Z 34005KT 08/07 A3036 RMK A01 T00810068  RH  092%=      5-min Rain = 0
KPD3 121234Z 34005KT 08/07 A3036 RMK A01 T00810067  RH  091%=      5-min Rain = 0
KPD3 121235Z 34005KT 08/07 A3036 RMK A01 T00810068  RH  091%=      5-min Rain = 0
KPD3 121236Z 34004KT 08/07 A3036 RMK A01 T00810068  RH  091%=      5-min Rain = 0
KPD3 121237Z 34004KT 08/07 A3036 RMK A01 T00810067  RH  091%=      5-min Rain = 0
KPD3 121238Z 34005KT 08/07 A3036 RMK A01 T00820068  RH  091%=      5-min Rain = 0
KPD3 121239Z 34005KT 08/07 A3036 RMK A01 T00820068  RH  091%=      5-min Rain = 0
KPD3 121240Z 34005KT 08/07 A3036 RMK A01 T00820067  RH  091%=      5-min Rain = 0
KPD3 121241Z 34005KT 08/07 A3036 RMK A01 T00820068  RH  091%=      5-min Rain = 0
KPD3 121242Z 34006KT 08/07 A3036 RMK A01 T00820068  RH  091%=      5-min Rain = 0
KPD3 121243Z 34005KT 08/07 A3036 RMK A01 T00830069  RH  091%=      5-min Rain = 0
KPD3 121244Z 34005KT 08/07 A3036 RMK A01 T00820068  RH  091%=      5-min Rain = 0
KPD3 121245Z 34005KT 08/07 A3036 RMK A01 T00830068  RH  090%=      5-min Rain = 0
KPD3 121246Z 34005KT 08/07 A3037 RMK A01 T00830068  RH  091%=      5-min Rain = 0
KPD3 121247Z 34004KT 08/07 A3036 RMK A01 T00830069  RH  091%=      5-min Rain = 0
KPD3 121248Z 34005KT 08/07 A3036 RMK A01 T00830069  RH  091%=      5-min Rain = 0
KPD3 121249Z 35004KT 08/07 A3036 RMK A01 T00830069  RH  090%=      5-min Rain = 0
KPD3 121250Z 35004KT 08/07 A3036 RMK A01 T00840068  RH  090%=      5-min Rain = 0
KPD3 121251Z 35004KT 08/07 A3037 RMK A01 T00840069  RH  090%=      5-min Rain = 0
KPD3 121252Z 35004KT 08/07 A3037 RMK A01 T00840070  RH  091%=      5-min Rain = 0
KPD3 121253Z 35004KT 08/07 A3037 RMK A01 T00840070  RH  091%=      5-min Rain = 0
KPD3 121254Z 35004KT 08/07 A3037 RMK A01 T00840069  RH  091%=      5-min Rain = 0
KPD3 121255Z 36004KT 08/07 A3037 RMK A01 T00840071  RH  091%=      5-min Rain = 0
KPD3 121256Z 36004KT 09/07 A3037 RMK A01 T00850070  RH  091%=      5-min Rain = 0
KPD3 121257Z 00004KT 09/07 A3037 RMK A01 T00850070  RH  090%=      5-min Rain = 0
KPD3 121258Z 01005KT 09/07 A3037 RMK A01 T00850070  RH  090%=      5-min Rain = 0
KPD3 121259Z 01004KT 09/07 A3036 RMK A01 T00850070  RH  090%=      5-min Rain = 0
KPD3 121300Z 01004KT 09/07 A3036 RMK A01 T00860071  RH  091%=      5-min Rain = 0
KPD3 121301Z 00006KT 09/07 A3037 RMK A01 T00860071  RH  090%=      5-min Rain = 0
KPD3 121302Z 00006KT 09/07 A3037 RMK A01 T00860069  RH  089%=      5-min Rain = 0
KPD3 121303Z 00006KT 09/07 A3037 RMK A01 T00870070  RH  089%=      5-min Rain = 0
KPD3 121304Z 36006KT 09/07 A3037 RMK A01 T00880070  RH  089%=      5-min Rain = 0
KPD3 121305Z 36006KT 09/07 A3037 RMK A01 T00880071  RH  089%=      5-min Rain = 0
KPD3 121306Z 00006KT 09/07 A3037 RMK A01 T00880071  RH  089%=      5-min Rain = 0
KPD3 121307Z 00006KT 09/07 A3037 RMK A01 T00880071  RH  089%=      5-min Rain = 0
KPD3 121308Z 36006KT 09/07 A3037 RMK A01 T00890071  RH  089%=      5-min Rain = 0
KPD3 121309Z 35006KT 09/07 A3037 RMK A01 T00890071  RH  088%=      5-min Rain = 0
KPD3 121310Z 35006KT 09/07 A3037 RMK A01 T00890071  RH  088%=      5-min Rain = 0
KPD3 121311Z 35006KT 09/07 A3038 RMK A01 T00890071  RH  088%=      5-min Rain = 0
KPD3 121312Z 35007KT 09/07 A3038 RMK A01 T00890071  RH  088%=      5-min Rain = 0
KPD3 121313Z 34007KT 09/07 A3038 RMK A01 T00890069  RH  087%=      5-min Rain = 0
KPD3 121314Z 34006KT 09/07 A3038 RMK A01 T00890069  RH  087%=      5-min Rain = 0
KPD3 121315Z 34007KT 09/07 A3038 RMK A01 T00890069  RH  087%=      5-min Rain = 0
KPD3 121316Z 35006KT 09/07 A3038 RMK A01 T00890068  RH  086%=      5-min Rain = 0
KPD3 121317Z 35006KT 09/07 A3038 RMK A01 T00890069  RH  087%=      5-min Rain = 0
KPD3 121318Z 35006KT 09/07 A3038 RMK A01 T00890070  RH  088%=      5-min Rain = 0
KPD3 121319Z 35006KT 09/07 A3038 RMK A01 T00900069  RH  087%=      5-min Rain = 0
KPD3 121320Z 35006KT 09/07 A3038 RMK A01 T00890070  RH  088%=      5-min Rain = 0
KPD3 121321Z 35005KT 09/07 A3038 RMK A01 T00890071  RH  088%=      5-min Rain = 0
KPD3 121322Z 36005KT 09/07 A3038 RMK A01 T00890071  RH  088%=      5-min Rain = 0
KPD3 121323Z 00006KT 09/07 A3038 RMK A01 T00890070  RH  088%=      5-min Rain = 0
KPD3 121324Z 00006KT 09/07 A3038 RMK A01 T00890069  RH  087%=      5-min Rain = 0
KPD3 121325Z 00006KT 09/07 A3037 RMK A01 T00900069  RH  087%=      5-min Rain = 0
KPD3 121326Z 01006KT 09/07 A3037 RMK A01 T00900069  RH  087%=      5-min Rain = 0
KPD3 121327Z 01006KT 09/07 A3037 RMK A01 T00900070  RH  087%=      5-min Rain = 0
KPD3 121328Z 01006KT 09/07 A3037 RMK A01 T00900068  RH  086%=      5-min Rain = 0
KPD3 121329Z 01006KT 09/07 A3037 RMK A01 T00900069  RH  087%=      5-min Rain = 0
KPD3 121330Z 01006KT 09/07 A3037 RMK A01 T00900070  RH  087%=      5-min Rain = 0
KPD3 121331Z 01006KT 09/07 A3038 RMK A01 T00900069  RH  087%=      5-min Rain = 0
KPD3 121332Z 01006KT 09/07 A3038 RMK A01 T00900070  RH  087%=      5-min Rain = 0
KPD3 121333Z 00005KT 09/07 A3038 RMK A01 T00900069  RH  087%=      5-min Rain = 0
KPD3 121334Z 00004KT 09/07 A3038 RMK A01 T00900070  RH  087%=      5-min Rain = 0
KPD3 121335Z 01005KT 09/07 A3038 RMK A01 T00900071  RH  088%=      5-min Rain = 0
KPD3 121336Z 02005KT 09/07 A3038 RMK A01 T00900071  RH  088%=      5-min Rain = 0
KPD3 121337Z 02005KT 09/07 A3037 RMK A01 T00900071  RH  088%=      5-min Rain = 0
KPD3 121338Z 02006KT 09/07 A3037 RMK A01 T00890071  RH  088%=      5-min Rain = 0
KPD3 121339Z 02006KT 09/07 A3037 RMK A01 T00890070  RH  088%=      5-min Rain = 0
KPD3 121340Z 02005KT 09/07 A3037 RMK A01 T00890070  RH  088%=      5-min Rain = 0
KPD3 121341Z 02006KT 09/07 A3037 RMK A01 T00890071  RH  088%=      5-min Rain = 0
KPD3 121342Z 01005KT 09/07 A3037 RMK A01 T00890072  RH  089%=      5-min Rain = 0
KPD3 121343Z 02005KT 09/07 A3037 RMK A01 T00890071  RH  089%=      5-min Rain = 0
KPD3 121344Z 02005KT 09/07 A3037 RMK A01 T00900072  RH  089%=      5-min Rain = 0
KPD3 121345Z 02005KT 09/07 A3038 RMK A01 T00900072  RH  088%=      5-min Rain = 0
KPD3 121346Z 01005KT 09/07 A3038 RMK A01 T00900071  RH  088%=      5-min Rain = 0
KPD3 121347Z 01006KT 09/07 A3038 RMK A01 T00900070  RH  087%=      5-min Rain = 0
KPD3 121348Z 01005KT 09/07 A3038 RMK A01 T00900069  RH  087%=      5-min Rain = 0
KPD3 121349Z 01005KT 09/07 A3038 RMK A01 T00900070  RH  087%=      5-min Rain = 0
KPD3 121350Z 02004KT 09/07 A3038 RMK A01 T00900069  RH  087%=      5-min Rain = 0
KPD3 121351Z 01003KT 09/07 A3038 RMK A01 T00900071  RH  088%=      5-min Rain = 0
KPD3 121352Z 01004KT 09/07 A3038 RMK A01 T00900074  RH  089%=      5-min Rain = 0
KPD3 121353Z 01004KT 09/07 A3039 RMK A01 T00900071  RH  088%=      5-min Rain = 0
KPD3 121354Z 00004KT 09/07 A3039 RMK A01 T00910072  RH  088%=      5-min Rain = 0
KPD3 121355Z 01005KT 09/07 A3039 RMK A01 T00910071  RH  087%=      5-min Rain = 0
KPD3 121356Z 01003KT 09/07 A3039 RMK A01 T00910070  RH  087%=      5-min Rain = 0
KPD3 121357Z 02003KT 09/07 A3039 RMK A01 T00910071  RH  087%=      5-min Rain = 0
KPD3 121358Z 01004KT 09/07 A3039 RMK A01 T00920073  RH  088%=      5-min Rain = 0
KPD3 121359Z 01005KT 09/07 A3039 RMK A01 T00930073  RH  087%=      5-min Rain = 0
KPD3 121400Z 01005KT 09/07 A304 RMK A01 T00940072  RH  086%=      5-min Rain = 0
KPD3 121401Z 00005KT 09/07 A304 RMK A01 T00940072  RH  086%=      5-min Rain = 0
KPD3 121402Z 36005KT 10/07 A304 RMK A01 T00960074  RH  086%=      5-min Rain = 0
KPD3 121403Z 00005KT 10/08 A304 RMK A01 T00970075  RH  086%=      5-min Rain = 0
KPD3 121404Z 35006KT 10/07 A304 RMK A01 T00970070  RH  083%=      5-min Rain = 0
KPD3 121405Z 35006KT 10/07 A304 RMK A01 T00980073  RH  085%=      5-min Rain = 0
KPD3 121406Z 36005KT 10/08 A304 RMK A01 T00980077  RH  087%=      5-min Rain = 0
KPD3 121407Z 35004KT 10/07 A304 RMK A01 T00990073  RH  084%=      5-min Rain = 0
KPD3 121408Z 36006KT 10/08 A304 RMK A01 T00990076  RH  086%=      5-min Rain = 0
KPD3 121409Z 36006KT 10/08 A304 RMK A01 T00990075  RH  085%=      5-min Rain = 0
KPD3 121410Z 00006KT 10/08 A304 RMK A01 T00990076  RH  086%=      5-min Rain = 0
KPD3 121411Z 36006KT 10/08 A304 RMK A01 T00990075  RH  085%=      5-min Rain = 0
KPD3 121412Z 36008KT 10/07 A304 RMK A01 T00990073  RH  084%=      5-min Rain = 0
KPD3 121413Z 00009KT 10/07 A304 RMK A01 T00990071  RH  083%=      5-min Rain = 0
KPD3 121414Z 01009KT 10/07 A304 RMK A01 T00990071  RH  083%=      5-min Rain = 0
KPD3 121415Z 36008KT 10/07 A304 RMK A01 T00980071  RH  083%=      5-min Rain = 0
KPD3 121416Z 01008KT 10/07 A304 RMK A01 T00990073  RH  084%=      5-min Rain = 0
KPD3 121417Z 01009KT 10/07 A304 RMK A01 T00990071  RH  083%=      5-min Rain = 0
KPD3 121418Z 02008KT 10/07 A304 RMK A01 T00990070  RH  082%=      5-min Rain = 0
KPD3 121419Z 01008KT 10/07 A304 RMK A01 T01000071  RH  082%=      5-min Rain = 0
KPD3 121420Z 01008KT 10/07 A304 RMK A01 T00990070  RH  082%=      5-min Rain = 0
KPD3 121421Z 02007KT 10/07 A304 RMK A01 T01000072  RH  083%=      5-min Rain = 0
KPD3 121422Z 02008KT 10/07 A304 RMK A01 T01000072  RH  083%=      5-min Rain = 0
KPD3 121423Z 02008KT 10/07 A304 RMK A01 T01000069  RH  081%=      5-min Rain = 0
KPD3 121424Z 01008KT 10/07 A304 RMK A01 T01000070  RH  081%=      5-min Rain = 0
KPD3 121425Z 02007KT 10/07 A304 RMK A01 T01000071  RH  082%=      5-min Rain = 0
KPD3 121426Z 02007KT 10/07 A304 RMK A01 T01010074  RH  083%=      5-min Rain = 0
KPD3 121427Z 02007KT 10/07 A304 RMK A01 T01030073  RH  082%=      5-min Rain = 0
KPD3 121428Z 02007KT 10/07 A304 RMK A01 T01030072  RH  081%=      5-min Rain = 0
KPD3 121429Z 01008KT 10/07 A304 RMK A01 T01040074  RH  082%=      5-min Rain = 0
KPD3 121430Z 03007KT 11/07 A304 RMK A01 T01050074  RH  081%=      5-min Rain = 0
KPD3 121431Z 02008KT 11/08 A304 RMK A01 T01060075  RH  082%=      5-min Rain = 0
KPD3 121432Z 02009KT 11/08 A304 RMK A01 T01060076  RH  082%=      5-min Rain = 0
KPD3 121433Z 02007KT 11/08 A304 RMK A01 T01070075  RH  081%=      5-min Rain = 0
KPD3 121434Z 03009KT 11/08 A304 RMK A01 T01080075  RH  080%=      5-min Rain = 0
KPD3 121435Z 01007KT 11/07 A304 RMK A01 T01080074  RH  080%=      5-min Rain = 0
KPD3 121436Z 02008KT 11/07 A304 RMK A01 T01080074  RH  079%=      5-min Rain = 0
KPD3 121437Z 02007KT 11/08 A304 RMK A01 T01070075  RH  080%=      5-min Rain = 0
KPD3 121438Z 03008KT 11/08 A304 RMK A01 T01080075  RH  080%=      5-min Rain = 0
KPD3 121439Z 01009KT 11/07 A304 RMK A01 T01090073  RH  078%=      5-min Rain = 0
KPD3 121440Z 01008KT 11/07 A304 RMK A01 T01080070  RH  077%=      5-min Rain = 0
KPD3 121441Z 02008KT 11/07 A304 RMK A01 T01080070  RH  077%=      5-min Rain = 0
KPD3 121442Z 02007KT 11/07 A304 RMK A01 T01080070  RH  077%=      5-min Rain = 0
KPD3 121443Z 00006KT 11/08 A304 RMK A01 T01090078  RH  081%=      5-min Rain = 0
KPD3 121444Z 01007KT 11/08 A304 RMK A01 T01120078  RH  079%=      5-min Rain = 0
KPD3 121445Z 01006KT 11/08 A304 RMK A01 T01120076  RH  078%=      5-min Rain = 0
KPD3 121446Z 03007KT 11/08 A304 RMK A01 T01130075  RH  078%=      5-min Rain = 0
KPD3 121447Z 03007KT 11/07 A304 RMK A01 T01120071  RH  076%=      5-min Rain = 0
KPD3 121448Z 03007KT 11/07 A304 RMK A01 T01120073  RH  077%=      5-min Rain = 0
KPD3 121449Z 04007KT 11/07 A304 RMK A01 T01120069  RH  075%=      5-min Rain = 0
KPD3 121450Z 03008KT 11/07 A304 RMK A01 T01110073  RH  077%=      5-min Rain = 0
KPD3 121451Z 04006KT 11/07 A304 RMK A01 T01120070  RH  075%=      5-min Rain = 0
KPD3 121452Z 03008KT 11/07 A304 RMK A01 T01120073  RH  077%=      5-min Rain = 0
KPD3 121453Z 03008KT 11/07 A304 RMK A01 T01130069  RH  074%=      5-min Rain = 0
KPD3 121454Z 03007KT 11/07 A304 RMK A01 T01110069  RH  075%=      5-min Rain = 0
KPD3 121455Z 02007KT 11/07 A304 RMK A01 T01110069  RH  075%=      5-min Rain = 0
KPD3 121456Z 02005KT 11/07 A304 RMK A01 T01120071  RH  076%=      5-min Rain = 0
KPD3 121457Z 04004KT 11/07 A304 RMK A01 T01130070  RH  075%=      5-min Rain = 0
KPD3 121458Z 05003KT 11/07 A3039 RMK A01 T01140066  RH  073%=      5-min Rain = 0
KPD3 121459Z 03006KT 11/07 A3039 RMK A01 T01140072  RH  076%=      5-min Rain = 0
KPD3 121500Z 03006KT 12/07 A3039 RMK A01 T01150071  RH  074%=      5-min Rain = 0
KPD3 121501Z 05004KT 12/07 A3039 RMK A01 T01160073  RH  075%=      5-min Rain = 0
KPD3 121502Z 06006KT 12/07 A3039 RMK A01 T01160072  RH  074%=      5-min Rain = 0
KPD3 121503Z 04007KT 12/07 A3039 RMK A01 T01160071  RH  074%=      5-min Rain = 0
KPD3 121504Z 04006KT 12/07 A3039 RMK A01 T01160068  RH  072%=      5-min Rain = 0
KPD3 121505Z 05005KT 12/07 A3039 RMK A01 T01150067  RH  072%=      5-min Rain = 0
KPD3 121506Z 04005KT 11/07 A3039 RMK A01 T01140070  RH  074%=      5-min Rain = 0
KPD3 121507Z 04005KT 12/07 A3039 RMK A01 T01160070  RH  073%=      5-min Rain = 0
KPD3 121508Z 03007KT 12/06 A3039 RMK A01 T01160064  RH  070%=      5-min Rain = 0
KPD3 121509Z 02005KT 11/07 A3039 RMK A01 T01140066  RH  072%=      5-min Rain = 0
KPD3 121510Z 02007KT 12/07 A3039 RMK A01 T01150069  RH  073%=      5-min Rain = 0
KPD3 121511Z 01007KT 12/07 A3039 RMK A01 T01160070  RH  073%=      5-min Rain = 0
KPD3 121512Z 02009KT 12/07 A3039 RMK A01 T01180072  RH  074%=      5-min Rain = 0
KPD3 121513Z 04008KT 12/07 A3039 RMK A01 T01180068  RH  071%=      5-min Rain = 0
KPD3 121514Z 05007KT 12/07 A3039 RMK A01 T01180066  RH  070%=      5-min Rain = 0
KPD3 121515Z 05007KT 12/07 A3039 RMK A01 T01180067  RH  071%=      5-min Rain = 0
KPD3 121516Z 03005KT 12/07 A3039 RMK A01 T01180066  RH  070%=      5-min Rain = 0
KPD3 121517Z 03004KT 12/07 A3039 RMK A01 T01180067  RH  071%=      5-min Rain = 0
KPD3 121518Z 03004KT 12/07 A3039 RMK A01 T01190073  RH  073%=      5-min Rain = 0
KPD3 121519Z 01005KT 12/07 A3039 RMK A01 T01210069  RH  070%=      5-min Rain = 0
KPD3 121520Z 02006KT 12/07 A3039 RMK A01 T01210069  RH  070%=      5-min Rain = 0
KPD3 121521Z 04007KT 12/07 A3039 RMK A01 T01200067  RH  070%=      5-min Rain = 0
KPD3 121522Z 05005KT 12/07 A3039 RMK A01 T01200067  RH  070%=      5-min Rain = 0
KPD3 121523Z 05006KT 12/07 A3039 RMK A01 T01200072  RH  072%=      5-min Rain = 0
KPD3 121524Z 05004KT 12/07 A3039 RMK A01 T01220070  RH  071%=      5-min Rain = 0
KPD3 121525Z 07006KT 12/07 A3039 RMK A01 T01240072  RH  071%=      5-min Rain = 0
KPD3 121526Z 07006KT 13/07 A3039 RMK A01 T01250068  RH  069%=      5-min Rain = 0
KPD3 121527Z 04005G11KT 13/07 A3039 RMK A01 T01250073  RH  071%=      5-min Rain = 0
KPD3 121528Z 03008KT 13/07 A3039 RMK A01 T01270074  RH  070%=      5-min Rain = 0
KPD3 121529Z 01007KT 13/07 A3039 RMK A01 T01280070  RH  068%=      5-min Rain = 0
KPD3 121530Z 02008KT 13/07 A3039 RMK A01 T01270070  RH  068%=      5-min Rain = 0
KPD3 121531Z 02007KT 13/07 A3039 RMK A01 T01270068  RH  067%=      5-min Rain = 0
KPD3 121532Z 02005KT 13/07 A3039 RMK A01 T01270069  RH  068%=      5-min Rain = 0
KPD3 121533Z 03006KT 13/07 A3039 RMK A01 T01290071  RH  068%=      5-min Rain = 0
KPD3 121534Z 02007KT 13/07 A3039 RMK A01 T01290071  RH  068%=      5-min Rain = 0
KPD3 121535Z 04008KT 13/07 A3039 RMK A01 T01280066  RH  066%=      5-min Rain = 0
KPD3 121536Z 03006KT 13/06 A3039 RMK A01 T01260064  RH  066%=      5-min Rain = 0
KPD3 121537Z 03007KT 12/06 A3039 RMK A01 T01240064  RH  067%=      5-min Rain = 0
KPD3 121538Z 02007KT 12/07 A3039 RMK A01 T01240067  RH  068%=      5-min Rain = 0
KPD3 121539Z 03007KT 13/07 A3039 RMK A01 T01260071  RH  069%=      5-min Rain = 0
KPD3 121540Z 04006KT 13/07 A3039 RMK A01 T01270068  RH  067%=      5-min Rain = 0
KPD3 121541Z 04007KT 13/07 A3039 RMK A01 T01270065  RH  066%=      5-min Rain = 0
KPD3 121542Z 05005KT 13/07 A3039 RMK A01 T01250065  RH  067%=      5-min Rain = 0
KPD3 121543Z 02007KT 13/07 A3039 RMK A01 T01260070  RH  069%=      5-min Rain = 0
KPD3 121544Z 03006KT 13/07 A3039 RMK A01 T01280065  RH  066%=      5-min Rain = 0
KPD3 121545Z 03005KT 13/07 A3039 RMK A01 T01280065  RH  065%=      5-min Rain = 0
KPD3 121546Z 02006KT 13/06 A3039 RMK A01 T01260063  RH  065%=      5-min Rain = 0
KPD3 121547Z 05006KT 13/06 A3039 RMK A01 T01250063  RH  066%=      5-min Rain = 0
KPD3 121548Z 05004KT 13/07 A3039 RMK A01 T01250065  RH  067%=      5-min Rain = 0
KPD3 121549Z 04005KT 13/07 A3039 RMK A01 T01280070  RH  068%=      5-min Rain = 0
KPD3 121550Z 03007KT 13/07 A3039 RMK A01 T01310066  RH  065%=      5-min Rain = 0
KPD3 121551Z 03006KT 13/06 A3039 RMK A01 T01290062  RH  064%=      5-min Rain = 0
KPD3 121552Z 05004KT 13/06 A3038 RMK A01 T01270063  RH  065%=      5-min Rain = 0
KPD3 121553Z 04004KT 13/07 A3038 RMK A01 T01270066  RH  066%=      5-min Rain = 0
KPD3 121554Z 05007KT 13/07 A3038 RMK A01 T01280069  RH  067%=      5-min Rain = 0
KPD3 121555Z 05006KT 13/07 A3039 RMK A01 T01290067  RH  066%=      5-min Rain = 0
KPD3 121556Z 03008KT 13/07 A3039 RMK A01 T01290067  RH  066%=      5-min Rain = 0
KPD3 121557Z 02006KT 13/07 A3039 RMK A01 T01280065  RH  065%=      5-min Rain = 0
KPD3 121558Z 03005KT 13/06 A3039 RMK A01 T01270061  RH  064%=      5-min Rain = 0
KPD3 121559Z 05004KT 13/06 A3038 RMK A01 T01260063  RH  066%=      5-min Rain = 0
KPD3 121600Z 05004KT 13/07 A3038 RMK A01 T01260066  RH  067%=      5-min Rain = 0
KPD3 121601Z 06005KT 13/07 A3038 RMK A01 T01300068  RH  066%=      5-min Rain = 0
KPD3 121602Z 05005KT 13/07 A3038 RMK A01 T01310065  RH  064%=      5-min Rain = 0
KPD3 121603Z 02007G12KT 13/07 A3038 RMK A01 T01300067  RH  065%=      5-min Rain = 0
KPD3 121604Z 04010KT 13/07 A3038 RMK A01 T01330065  RH  063%=      5-min Rain = 0
KPD3 121605Z 04010KT 14/07 A3038 RMK A01 T01370066  RH  062%=      5-min Rain = 0
KPD3 121606Z 05008KT 14/06 A3038 RMK A01 T01370061  RH  060%=      5-min Rain = 0
KPD3 121607Z 05006KT 14/06 A3038 RMK A01 T01370063  RH  061%=      5-min Rain = 0
KPD3 121608Z 07008KT 14/06 A3038 RMK A01 T01400064  RH  060%=      5-min Rain = 0
KPD3 121609Z 07007KT 14/06 A3038 RMK A01 T01400063  RH  060%=      5-min Rain = 0
KPD3 121610Z 06006KT 14/06 A3038 RMK A01 T01390064  RH  060%=      5-min Rain = 0
KPD3 121611Z 07008KT 14/06 A3038 RMK A01 T01390062  RH  060%=      5-min Rain = 0
KPD3 121612Z 04009KT 14/06 A3038 RMK A01 T01400062  RH  059%=      5-min Rain = 0
KPD3 121613Z 03006KT 14/06 A3038 RMK A01 T01400059  RH  058%=      5-min Rain = 0
KPD3 121614Z 01005KT 14/06 A3038 RMK A01 T01400061  RH  059%=      5-min Rain = 0
KPD3 121615Z 09005KT 14/07 A3038 RMK A01 T01420067  RH  061%=      5-min Rain = 0
KPD3 121616Z 11007KT 15/06 A3038 RMK A01 T01450063  RH  058%=      5-min Rain = 0
KPD3 121617Z 09008KT 14/06 A3038 RMK A01 T01430062  RH  058%=      5-min Rain = 0
KPD3 121618Z 08008KT 15/07 A3038 RMK A01 T01450068  RH  060%=      5-min Rain = 0
KPD3 121619Z 07008KT 15/06 A3038 RMK A01 T01470060  RH  056%=      5-min Rain = 0
KPD3 121620Z 08009KT 15/07 A3038 RMK A01 T01460066  RH  058%=      5-min Rain = 0
KPD3 121621Z 07010KT 15/07 A3038 RMK A01 T01480066  RH  058%=      5-min Rain = 0
KPD3 121622Z 08009KT 15/07 A3038 RMK A01 T01470065  RH  058%=      5-min Rain = 0
KPD3 121623Z 07009KT 15/06 A3038 RMK A01 T01450062  RH  058%=      5-min Rain = 0
KPD3 121624Z 06007KT 14/07 A3038 RMK A01 T01430065  RH  059%=      5-min Rain = 0
KPD3 121625Z 08006KT 15/07 A3038 RMK A01 T01450065  RH  059%=      5-min Rain = 0
KPD3 121626Z 08005KT 14/06 A3038 RMK A01 T01440059  RH  057%=      5-min Rain = 0
KPD3 121627Z 04009KT 14/06 A3038 RMK A01 T01430063  RH  059%=      5-min Rain = 0
KPD3 121628Z 03007KT 14/06 A3038 RMK A01 T01440060  RH  057%=      5-min Rain = 0
KPD3 121629Z 04007KT 15/06 A3038 RMK A01 T01460062  RH  057%=      5-min Rain = 0
KPD3 121630Z 06008KT 15/06 A3038 RMK A01 T01470063  RH  057%=      5-min Rain = 0
KPD3 121631Z 04009KT 15/06 A3038 RMK A01 T01460060  RH  056%=      5-min Rain = 0
KPD3 121632Z 03008KT 14/06 A3038 RMK A01 T01430061  RH  058%=      5-min Rain = 0
KPD3 121633Z 04007KT 15/06 A3038 RMK A01 T01460061  RH  057%=      5-min Rain = 0
KPD3 121634Z 05006KT 15/06 A3038 RMK A01 T01470062  RH  057%=      5-min Rain = 0
KPD3 121635Z 04009KT 15/06 A3038 RMK A01 T01490059  RH  055%=      5-min Rain = 0
KPD3 121636Z 03006KT 15/06 A3038 RMK A01 T01470056  RH  055%=      5-min Rain = 0
KPD3 121637Z 05010KT 15/06 A3038 RMK A01 T01450055  RH  055%=      5-min Rain = 0
KPD3 121638Z 05009KT 15/06 A3038 RMK A01 T01480062  RH  057%=      5-min Rain = 0
KPD3 121639Z 04007KT 15/06 A3038 RMK A01 T01470056  RH  054%=      5-min Rain = 0
KPD3 121640Z 03008KT 15/06 A3037 RMK A01 T01450057  RH  055%=      5-min Rain = 0
KPD3 121641Z 03007KT 14/06 A3037 RMK A01 T01440057  RH  056%=      5-min Rain = 0
KPD3 121642Z 02007KT 14/06 A3037 RMK A01 T01440055  RH  055%=      5-min Rain = 0
KPD3 121643Z 01008KT 14/06 A3037 RMK A01 T01440055  RH  055%=      5-min Rain = 0
KPD3 121644Z 05009KT 15/06 A3037 RMK A01 T01450059  RH  056%=      5-min Rain = 0
KPD3 121645Z 02008KT 15/06 A3037 RMK A01 T01480057  RH  055%=      5-min Rain = 0
KPD3 121646Z 01008KT 15/06 A3037 RMK A01 T01490063  RH  056%=      5-min Rain = 0
KPD3 121647Z 02007KT 15/06 A3037 RMK A01 T01510062  RH  055%=      5-min Rain = 0
KPD3 121648Z 03005KT 15/06 A3037 RMK A01 T01520060  RH  054%=      5-min Rain = 0
KPD3 121649Z 02003KT 15/06 A3037 RMK A01 T01490059  RH  055%=      5-min Rain = 0
KPD3 121650Z 04005KT 15/06 A3037 RMK A01 T01490060  RH  055%=      5-min Rain = 0
KPD3 121651Z 06004KT 15/06 A3037 RMK A01 T01490060  RH  055%=      5-min Rain = 0
KPD3 121652Z 07007KT 15/06 A3037 RMK A01 T01520063  RH  055%=      5-min Rain = 0
KPD3 121653Z 06011KT 15/06 A3037 RMK A01 T01520058  RH  053%=      5-min Rain = 0
KPD3 121654Z 06010KT 15/06 A3037 RMK A01 T01520059  RH  054%=      5-min Rain = 0
KPD3 121655Z 05008KT 16/06 A3037 RMK A01 T01550061  RH  053%=      5-min Rain = 0
KPD3 121656Z 06006KT 16/06 A3037 RMK A01 T01570060  RH  053%=      5-min Rain = 0
KPD3 121657Z 09011KT 16/06 A3037 RMK A01 T01580064  RH  053%=      5-min Rain = 0
KPD3 121658Z 06010KT 16/06 A3037 RMK A01 T01600058  RH  051%=      5-min Rain = 0
KPD3 121659Z 07007KT 16/06 A3037 RMK A01 T01560056  RH  051%=      5-min Rain = 0
KPD3 121700Z 08010KT 15/06 A3037 RMK A01 T01540055  RH  052%=      5-min Rain = 0
KPD3 121701Z 08006KT 15/05 A3037 RMK A01 T01540052  RH  051%=      5-min Rain = 0
KPD3 121702Z 06005KT 15/05 A3037 RMK A01 T01530052  RH  051%=      5-min Rain = 0
KPD3 121703Z 10009KT 15/06 A3037 RMK A01 T01520056  RH  053%=      5-min Rain = 0
KPD3 121704Z 09008KT 15/05 A3037 RMK A01 T01530054  RH  052%=      5-min Rain = 0
KPD3 121705Z 09011KT 15/06 A3037 RMK A01 T01530055  RH  052%=      5-min Rain = 0
KPD3 121706Z 09008KT 15/05 A3037 RMK A01 T01500047  RH  050%=      5-min Rain = 0
KPD3 121707Z 09009KT 15/05 A3037 RMK A01 T01460047  RH  052%=      5-min Rain = 0
KPD3 121708Z 09008G16KT 14/04 A3037 RMK A01 T01420042  RH  051%=      5-min Rain = 0
KPD3 121709Z 03009G15KT 14/05 A3037 RMK A01 T01410049  RH  054%=      5-min Rain = 0
KPD3 121710Z 02008KT 14/05 A3037 RMK A01 T01430050  RH  054%=      5-min Rain = 0
KPD3 121711Z 02004KT 14/05 A3037 RMK A01 T01420049  RH  053%=      5-min Rain = 0
KPD3 121712Z 03006G11KT 14/05 A3037 RMK A01 T01420047  RH  053%=      5-min Rain = 0
KPD3 121713Z 03010KT 14/05 A3037 RMK A01 T01420050  RH  054%=      5-min Rain = 0
KPD3 121714Z 03011KT 14/05 A3037 RMK A01 T01440050  RH  053%=      5-min Rain = 0
KPD3 121715Z 04010KT 14/05 A3037 RMK A01 T01440048  RH  053%=      5-min Rain = 0
KPD3 121716Z 04008KT 14/05 A3037 RMK A01 T01440049  RH  053%=      5-min Rain = 0
KPD3 121717Z 05006KT 14/05 A3037 RMK A01 T01430046  RH  052%=      5-min Rain = 0
KPD3 121718Z 04005KT 14/05 A3037 RMK A01 T01420047  RH  053%=      5-min Rain = 0
KPD3 121719Z 04005KT 14/05 A3037 RMK A01 T01430047  RH  053%=      5-min Rain = 0
KPD3 121720Z 05006KT 14/05 A3037 RMK A01 T01440049  RH  053%=      5-min Rain = 0
KPD3 121721Z 06007KT 15/05 A3037 RMK A01 T01450048  RH  052%=      5-min Rain = 0
KPD3 121722Z 04009KT 15/05 A3037 RMK A01 T01450047  RH  052%=      5-min Rain = 0
KPD3 121723Z 05010KT 15/05 A3037 RMK A01 T01460047  RH  052%=      5-min Rain = 0
KPD3 121724Z 04007KT 15/05 A3037 RMK A01 T01460047  RH  051%=      5-min Rain = 0
KPD3 121725Z 05007KT 15/05 A3037 RMK A01 T01450047  RH  052%=      5-min Rain = 0
KPD3 121726Z 04005KT 15/05 A3037 RMK A01 T01460048  RH  052%=      5-min Rain = 0
KPD3 121727Z 06007KT 15/05 A3037 RMK A01 T01480048  RH  051%=      5-min Rain = 0
KPD3 121728Z 06006KT 15/05 A3037 RMK A01 T01490045  RH  050%=      5-min Rain = 0
KPD3 121729Z 06008KT 15/05 A3037 RMK A01 T01510051  RH  051%=      5-min Rain = 0
KPD3 121730Z 05009KT 16/06 A3037 RMK A01 T01590059  RH  052%=      5-min Rain = 0
KPD3 121731Z 03006KT 16/05 A3037 RMK A01 T01570048  RH  048%=      5-min Rain = 0
KPD3 121732Z 04005KT 15/05 A3037 RMK A01 T01540047  RH  049%=      5-min Rain = 0
KPD3 121733Z 07005KT 15/05 A3037 RMK A01 T01510049  RH  050%=      5-min Rain = 0
KPD3 121734Z 06003KT 15/05 A3037 RMK A01 T01500049  RH  051%=      5-min Rain = 0
KPD3 121735Z 05005KT 15/05 A3037 RMK A01 T01490050  RH  052%=      5-min Rain = 0
KPD3 121736Z 04004KT 15/05 A3037 RMK A01 T01480048  RH  051%=      5-min Rain = 0
KPD3 121737Z 03005KT 15/05 A3037 RMK A01 T01470050  RH  052%=      5-min Rain = 0
KPD3 121738Z 03006KT 15/06 A3037 RMK A01 T01480057  RH  054%=      5-min Rain = 0
KPD3 121739Z 01009KT 15/06 A3037 RMK A01 T01520055  RH  052%=      5-min Rain = 0
KPD3 121740Z 01010KT 15/06 A3037 RMK A01 T01520056  RH  052%=      5-min Rain = 0
KPD3 121741Z 01010KT 15/05 A3037 RMK A01 T01520053  RH  051%=      5-min Rain = 0
KPD3 121742Z 01010KT 15/05 A3037 RMK A01 T01520054  RH  052%=      5-min Rain = 0
KPD3 121743Z 00007KT 15/05 A3037 RMK A01 T01500051  RH  051%=      5-min Rain = 0
KPD3 121744Z 35007KT 15/05 A3037 RMK A01 T01480052  RH  052%=      5-min Rain = 0
KPD3 121745Z 35007KT 15/05 A3037 RMK A01 T01480054  RH  053%=      5-min Rain = 0
KPD3 121746Z 34007KT 15/05 A3037 RMK A01 T01490052  RH  052%=      5-min Rain = 0
KPD3 121747Z 35004KT 15/05 A3037 RMK A01 T01480053  RH  053%=      5-min Rain = 0
KPD3 121748Z 01005KT 15/06 A3037 RMK A01 T01490056  RH  054%=      5-min Rain = 0
KPD3 121749Z 01010G15KT 15/06 A3037 RMK A01 T01520056  RH  053%=      5-min Rain = 0
KPD3 121750Z 04007KT 15/06 A3037 RMK A01 T01520055  RH  052%=      5-min Rain = 0
KPD3 121751Z 07007KT 15/05 A3037 RMK A01 T01530053  RH  051%=      5-min Rain = 0
KPD3 121752Z 05008KT 15/05 A3037 RMK A01 T01510053  RH  052%=      5-min Rain = 0
KPD3 121753Z 01007KT 15/06 A3037 RMK A01 T01520056  RH  053%=      5-min Rain = 0
KPD3 121754Z 02006G12KT 15/06 A3037 RMK A01 T01540059  RH  053%=      5-min Rain = 0
KPD3 121755Z 01011KT 16/06 A3037 RMK A01 T01550057  RH  052%=      5-min Rain = 0
KPD3 121756Z 01010KT 15/05 A3037 RMK A01 T01540053  RH  051%=      5-min Rain = 0
KPD3 121757Z 01009KT 15/05 A3037 RMK A01 T01520053  RH  052%=      5-min Rain = 0
KPD3 121758Z 02008KT 15/06 A3037 RMK A01 T01520057  RH  053%=      5-min Rain = 0
KPD3 121759Z 01011KT 16/06 A3037 RMK A01 T01560058  RH  052%=      5-min Rain = 0
KPD3 121800Z 01010KT 16/05 A3037 RMK A01 T01560054  RH  051%=      5-min Rain = 0
KPD3 121801Z 00010KT 15/05 A3037 RMK A01 T01540052  RH  051%=      5-min Rain = 0
KPD3 121802Z 00009KT 15/05 A3037 RMK A01 T01520052  RH  051%=      5-min Rain = 0
KPD3 121803Z 00010KT 15/05 A3037 RMK A01 T01520053  RH  052%=      5-min Rain = 0
KPD3 121804Z 01009KT 15/05 A3037 RMK A01 T01520052  RH  051%=      5-min Rain = 0
KPD3 121805Z 35006KT 15/05 A3037 RMK A01 T01510051  RH  051%=      5-min Rain = 0
KPD3 121806Z 01005KT 15/06 A3037 RMK A01 T01510058  RH  054%=      5-min Rain = 0
KPD3 121807Z 02006KT 16/06 A3036 RMK A01 T01550057  RH  052%=      5-min Rain = 0
KPD3 121808Z 02006KT 16/06 A3036 RMK A01 T01560055  RH  051%=      5-min Rain = 0
KPD3 121809Z 02008KT 16/06 A3036 RMK A01 T01570055  RH  051%=      5-min Rain = 0
KPD3 121810Z 02007KT 16/05 A3036 RMK A01 T01570053  RH  050%=      5-min Rain = 0
KPD3 121811Z 02009KT 16/05 A3036 RMK A01 T01550051  RH  050%=      5-min Rain = 0
KPD3 121812Z 01008KT 15/05 A3036 RMK A01 T01540053  RH  051%=      5-min Rain = 0
KPD3 121813Z 01006KT 15/05 A3036 RMK A01 T01540051  RH  050%=      5-min Rain = 0
KPD3 121814Z 00006KT 15/05 A3036 RMK A01 T01540051  RH  050%=      5-min Rain = 0
KPD3 121815Z 04005KT 15/05 A3036 RMK A01 T01530051  RH  051%=      5-min Rain = 0
KPD3 121816Z 07003KT 15/05 A3036 RMK A01 T01530051  RH  050%=      5-min Rain = 0
KPD3 121817Z 07005KT 15/05 A3036 RMK A01 T01540051  RH  050%=      5-min Rain = 0
KPD3 121818Z 06006G13KT 16/05 A3036 RMK A01 T01550051  RH  050%=      5-min Rain = 0
KPD3 121819Z 07008G14KT 16/05 A3036 RMK A01 T01560054  RH  050%=      5-min Rain = 0
KPD3 121820Z 06007KT 16/05 A3036 RMK A01 T01580051  RH  049%=      5-min Rain = 0
KPD3 121821Z 02005KT 16/05 A3036 RMK A01 T01570050  RH  049%=      5-min Rain = 0
KPD3 121822Z 02004KT 16/05 A3036 RMK A01 T01560046  RH  048%=      5-min Rain = 0
KPD3 121823Z 04004KT 16/05 A3036 RMK A01 T01550051  RH  050%=      5-min Rain = 0
KPD3 121824Z 06005KT 16/05 A3036 RMK A01 T01560048  RH  048%=      5-min Rain = 0
KPD3 121825Z 06007KT 16/05 A3036 RMK A01 T01560049  RH  049%=      5-min Rain = 0
KPD3 121826Z 05006KT 16/05 A3036 RMK A01 T01570050  RH  049%=      5-min Rain = 0
KPD3 121827Z 05008KT 16/05 A3036 RMK A01 T01580048  RH  048%=      5-min Rain = 0
KPD3 121828Z 06005KT 16/05 A3036 RMK A01 T01570049  RH  049%=      5-min Rain = 0
KPD3 121829Z 35004KT 16/05 A3036 RMK A01 T01560049  RH  049%=      5-min Rain = 0
KPD3 121830Z 01005KT 16/05 A3036 RMK A01 T01560050  RH  049%=      5-min Rain = 0
KPD3 121831Z 05006KT 16/05 A3036 RMK A01 T01570049  RH  049%=      5-min Rain = 0
KPD3 121832Z 04009KT 16/06 A3036 RMK A01 T01590056  RH  050%=      5-min Rain = 0
KPD3 121833Z 04005KT 16/05 A3036 RMK A01 T01600054  RH  049%=      5-min Rain = 0
KPD3 121834Z 03005KT 16/05 A3036 RMK A01 T01600051  RH  048%=      5-min Rain = 0
KPD3 121835Z 01005KT 16/05 A3036 RMK A01 T01580050  RH  049%=      5-min Rain = 0
KPD3 121836Z 02010KT 16/05 A3036 RMK A01 T01550049  RH  049%=      5-min Rain = 0
KPD3 121837Z 02007KT 16/05 A3036 RMK A01 T01550051  RH  050%=      5-min Rain = 0
KPD3 121838Z 00008KT 16/06 A3036 RMK A01 T01560055  RH  051%=      5-min Rain = 0
KPD3 121839Z 01010KT 16/06 A3036 RMK A01 T01580055  RH  050%=      5-min Rain = 0
KPD3 121840Z 02009KT 16/05 A3036 RMK A01 T01590053  RH  049%=      5-min Rain = 0
KPD3 121841Z 02007KT 16/05 A3036 RMK A01 T01570051  RH  049%=      5-min Rain = 0
KPD3 121842Z 03008KT 16/05 A3036 RMK A01 T01560050  RH  049%=      5-min Rain = 0
KPD3 121843Z 08006KT 16/05 A3036 RMK A01 T01550049  RH  049%=      5-min Rain = 0
KPD3 121844Z 07003KT 16/06 A3036 RMK A01 T01550057  RH  052%=      5-min Rain = 0
KPD3 121845Z 36004KT 16/06 A3036 RMK A01 T01610056  RH  050%=      5-min Rain = 0
KPD3 121846Z 35003KT 16/05 A3035 RMK A01 T01620051  RH  048%=      5-min Rain = 0
KPD3 121847Z 36007KT 16/06 A3035 RMK A01 T01630055  RH  049%=      5-min Rain = 0
KPD3 121848Z 01008KT 16/05 A3035 RMK A01 T01640054  RH  048%=      5-min Rain = 0
KPD3 121849Z 35007KT 16/05 A3035 RMK A01 T01620050  RH  048%=      5-min Rain = 0
KPD3 121850Z 36006KT 16/05 A3035 RMK A01 T01600052  RH  049%=      5-min Rain = 0
KPD3 121851Z 35005KT 16/05 A3035 RMK A01 T01600050  RH  048%=      5-min Rain = 0
KPD3 121852Z 36006KT 16/06 A3035 RMK A01 T01590055  RH  050%=      5-min Rain = 0
KPD3 121853Z 01003KT 16/06 A3035 RMK A01 T01620056  RH  049%=      5-min Rain = 0
KPD3 121854Z 03005KT 17/06 A3035 RMK A01 T01660058  RH  049%=      5-min Rain = 0
KPD3 121855Z 06010KT 17/06 A3035 RMK A01 T01670056  RH  048%=      5-min Rain = 0
KPD3 121856Z 06010KT 17/06 A3035 RMK A01 T01680058  RH  048%=      5-min Rain = 0
KPD3 121857Z 06009KT 17/06 A3035 RMK A01 T01700057  RH  047%=      5-min Rain = 0
KPD3 121858Z 06008KT 17/05 A3035 RMK A01 T01680054  RH  047%=      5-min Rain = 0
KPD3 121859Z 04007KT 17/05 A3035 RMK A01 T01650053  RH  047%=      5-min Rain = 0
KPD3 121900Z 04006KT 16/05 A3035 RMK A01 T01630053  RH  048%=      5-min Rain = 0
KPD3 121901Z 00006KT 17/06 A3035 RMK A01 T01660060  RH  049%=      5-min Rain = 0
KPD3 121902Z 01005KT 17/06 A3035 RMK A01 T01680056  RH  048%=      5-min Rain = 0
KPD3 121903Z 05004KT 17/05 A3035 RMK A01 T01680054  RH  047%=      5-min Rain = 0
KPD3 121904Z 02007KT 17/06 A3035 RMK A01 T01660055  RH  048%=      5-min Rain = 0
KPD3 121905Z 02008KT 17/06 A3035 RMK A01 T01660055  RH  048%=      5-min Rain = 0
KPD3 121906Z 00009KT 17/06 A3035 RMK A01 T01670059  RH  049%=      5-min Rain = 0
KPD3 121907Z 03010KT 17/06 A3035 RMK A01 T01700058  RH  048%=      5-min Rain = 0
KPD3 121908Z 01007KT 17/05 A3035 RMK A01 T01670050  RH  046%=      5-min Rain = 0
KPD3 121909Z 02004KT 16/05 A3035 RMK A01 T01640051  RH  047%=      5-min Rain = 0
KPD3 121910Z 04005KT 16/06 A3035 RMK A01 T01630055  RH  049%=      5-min Rain = 0
KPD3 121911Z 06007KT 17/07 A3035 RMK A01 T01700067  RH  051%=      5-min Rain = 0
KPD3 121912Z 06008KT 18/06 A3035 RMK A01 T01770063  RH  047%=      5-min Rain = 0
KPD3 121913Z 04007KT 18/06 A3035 RMK A01 T01790060  RH  045%=      5-min Rain = 0
KPD3 121914Z 03005KT 18/06 A3035 RMK A01 T01770056  RH  045%=      5-min Rain = 0
KPD3 121915Z 04005KT 17/06 A3035 RMK A01 T01740056  RH  046%=      5-min Rain = 0
KPD3 121916Z 02005KT 17/05 A3035 RMK A01 T01700049  RH  045%=      5-min Rain = 0
KPD3 121917Z 03007KT 17/05 A3035 RMK A01 T01660053  RH  047%=      5-min Rain = 0
KPD3 121918Z 05007KT 17/05 A3035 RMK A01 T01650052  RH  047%=      5-min Rain = 0
KPD3 121919Z 06004KT 16/05 A3035 RMK A01 T01620051  RH  048%=      5-min Rain = 0
KPD3 121920Z 06005KT 16/05 A3035 RMK A01 T01610053  RH  049%=      5-min Rain = 0
KPD3 121921Z 04008KT 16/06 A3035 RMK A01 T01620055  RH  049%=      5-min Rain = 0
KPD3 121922Z 05006KT 16/05 A3035 RMK A01 T01630052  RH  048%=      5-min Rain = 0
KPD3 121923Z 04006KT 16/05 A3035 RMK A01 T01620051  RH  048%=      5-min Rain = 0
KPD3 121924Z 36008KT 16/05 A3035 RMK A01 T01620053  RH  049%=      5-min Rain = 0
KPD3 121925Z 35009KT 16/05 A3035 RMK A01 T01620051  RH  047%=      5-min Rain = 0
KPD3 121926Z 34006KT 16/05 A3034 RMK A01 T01620049  RH  047%=      5-min Rain = 0
KPD3 121927Z 01006KT 16/05 A3034 RMK A01 T01610052  RH  048%=      5-min Rain = 0
KPD3 121928Z 00010KT 17/06 A3034 RMK A01 T01650056  RH  049%=      5-min Rain = 0
KPD3 121929Z 01011KT 17/06 A3034 RMK A01 T01670055  RH  048%=      5-min Rain = 0
KPD3 121930Z 04008KT 17/05 A3034 RMK A01 T01670052  RH  047%=      5-min Rain = 0
KPD3 121931Z 04011KT 17/06 A3034 RMK A01 T01670056  RH  048%=      5-min Rain = 0
KPD3 121932Z 06013KT 17/05 A3035 RMK A01 T01650051  RH  047%=      5-min Rain = 0
KPD3 121933Z 07010KT 16/05 A3035 RMK A01 T01620049  RH  047%=      5-min Rain = 0
KPD3 121934Z 04012KT 16/05 A3035 RMK A01 T01600050  RH  048%=      5-min Rain = 0
KPD3 121935Z 03009KT 16/05 A3035 RMK A01 T01590051  RH  048%=      5-min Rain = 0
KPD3 121936Z 03009KT 16/05 A3035 RMK A01 T01600050  RH  048%=      5-min Rain = 0
KPD3 121937Z 04009KT 16/05 A3035 RMK A01 T01600050  RH  048%=      5-min Rain = 0
KPD3 121938Z 05008KT 16/05 A3035 RMK A01 T01600049  RH  048%=      5-min Rain = 0
KPD3 121939Z 04008KT 16/05 A3035 RMK A01 T01600049  RH  048%=      5-min Rain = 0
KPD3 121940Z 04005KT 16/05 A3035 RMK A01 T01600050  RH  048%=      5-min Rain = 0
KPD3 121941Z 05008KT 17/06 A3035 RMK A01 T01650055  RH  048%=      5-min Rain = 0
KPD3 121942Z 04005KT 17/06 A3035 RMK A01 T01690057  RH  048%=      5-min Rain = 0
KPD3 121943Z 03004KT 17/06 A3035 RMK A01 T01730059  RH  047%=      5-min Rain = 0
KPD3 121944Z 05007KT 18/05 A3035 RMK A01 T01750054  RH  045%=      5-min Rain = 0
KPD3 121945Z 07005KT 18/06 A3035 RMK A01 T01750057  RH  046%=      5-min Rain = 0
KPD3 121946Z 06006KT 17/05 A3035 RMK A01 T01740052  RH  045%=      5-min Rain = 0
KPD3 121947Z 05004KT 17/05 A3035 RMK A01 T01710052  RH  045%=      5-min Rain = 0
KPD3 121948Z 04003KT 17/05 A3035 RMK A01 T01690048  RH  045%=      5-min Rain = 0
KPD3 121949Z 04004KT 17/05 A3035 RMK A01 T01670048  RH  045%=      5-min Rain = 0
KPD3 121950Z 04003KT 17/05 A3035 RMK A01 T01650048  RH  046%=      5-min Rain = 0
KPD3 121951Z 03009KT 16/05 A3035 RMK A01 T01640051  RH  047%=      5-min Rain = 0
KPD3 121952Z 01008KT 16/05 A3035 RMK A01 T01640048  RH  046%=      5-min Rain = 0
KPD3 121953Z 04006KT 16/05 A3035 RMK A01 T01620050  RH  047%=      5-min Rain = 0
KPD3 121954Z 05006KT 16/05 A3035 RMK A01 T01640052  RH  047%=      5-min Rain = 0
KPD3 121955Z 05005KT 16/05 A3035 RMK A01 T01640047  RH  046%=      5-min Rain = 0
KPD3 121956Z 05006KT 16/05 A3034 RMK A01 T01620050  RH  047%=      5-min Rain = 0
KPD3 121957Z 05007KT 16/05 A3034 RMK A01 T01630049  RH  047%=      5-min Rain = 0
KPD3 121958Z 04004KT 16/05 A3034 RMK A01 T01620047  RH  046%=      5-min Rain = 0
KPD3 121959Z 06002KT 16/05 A3034 RMK A01 T01620048  RH  046%=      5-min Rain = 0
KPD3 122000Z 08004KT 17/06 A3034 RMK A01 T01650059  RH  049%=      5-min Rain = 0
KPD3 122001Z 03005KT 17/05 A3034 RMK A01 T01700052  RH  046%=      5-min Rain = 0
KPD3 122002Z 02003KT 17/05 A3034 RMK A01 T01710050  RH  045%=      5-min Rain = 0
KPD3 122003Z 04008KT 17/05 A3034 RMK A01 T01700051  RH  045%=      5-min Rain = 0
KPD3 122004Z 04006KT 17/05 A3034 RMK A01 T01700051  RH  045%=      5-min Rain = 0
KPD3 122005Z 06004KT 17/05 A3034 RMK A01 T01690052  RH  046%=      5-min Rain = 0
KPD3 122006Z 08003KT 17/05 A3034 RMK A01 T01690048  RH  045%=      5-min Rain = 0
KPD3 122007Z 07003KT 17/05 A3034 RMK A01 T01670048  RH  045%=      5-min Rain = 0
KPD3 122008Z 04005KT 16/05 A3034 RMK A01 T01640047  RH  046%=      5-min Rain = 0
KPD3 122009Z 04009KT 16/05 A3034 RMK A01 T01640054  RH  048%=      5-min Rain = 0
KPD3 122010Z 04010KT 17/05 A3034 RMK A01 T01650051  RH  047%=      5-min Rain = 0
KPD3 122011Z 06008KT 16/05 A3034 RMK A01 T01640050  RH  047%=      5-min Rain = 0
KPD3 122012Z 05009KT 16/05 A3034 RMK A01 T01630050  RH  047%=      5-min Rain = 0
KPD3 122013Z 04009KT 16/05 A3034 RMK A01 T01630050  RH  047%=      5-min Rain = 0
KPD3 122014Z 05005KT 16/05 A3034 RMK A01 T01620047  RH  047%=      5-min Rain = 0
KPD3 122015Z 07004KT 16/05 A3034 RMK A01 T01610048  RH  047%=      5-min Rain = 0
KPD3 122016Z 07003KT 16/05 A3034 RMK A01 T01630051  RH  048%=      5-min Rain = 0
KPD3 122017Z 33003KT 17/05 A3033 RMK A01 T01660053  RH  047%=      5-min Rain = 0
KPD3 122018Z 33004KT 17/05 A3033 RMK A01 T01700052  RH  046%=      5-min Rain = 0
KPD3 122019Z 31003KT 17/05 A3033 RMK A01 T01700050  RH  045%=      5-min Rain = 0
KPD3 122020Z 05001KT 17/06 A3033 RMK A01 T01730062  RH  048%=      5-min Rain = 0
KPD3 122021Z 08006KT 18/06 A3033 RMK A01 T01790061  RH  046%=      5-min Rain = 0
KPD3 122022Z 09005KT 18/06 A3033 RMK A01 T01810055  RH  043%=      5-min Rain = 0
KPD3 122023Z 10005KT 18/05 A3033 RMK A01 T01800050  RH  042%=      5-min Rain = 0
KPD3 122024Z 09003KT 17/05 A3033 RMK A01 T01740048  RH  043%=      5-min Rain = 0
KPD3 122025Z 04007KT 17/05 A3033 RMK A01 T01710050  RH  045%=      5-min Rain = 0
KPD3 122026Z 04009KT 17/05 A3033 RMK A01 T01700050  RH  045%=      5-min Rain = 0
KPD3 122027Z 06007KT 17/05 A3033 RMK A01 T01680050  RH  046%=      5-min Rain = 0
KPD3 122028Z 05009KT 17/05 A3033 RMK A01 T01650049  RH  046%=      5-min Rain = 0
KPD3 122029Z 03006KT 16/05 A3033 RMK A01 T01640050  RH  047%=      5-min Rain = 0
KPD3 122030Z 02007KT 16/05 A3033 RMK A01 T01640052  RH  048%=      5-min Rain = 0
KPD3 122031Z 01007KT 16/05 A3033 RMK A01 T01640048  RH  046%=      5-min Rain = 0
KPD3 122032Z 01007KT 16/05 A3033 RMK A01 T01620050  RH  047%=      5-min Rain = 0
KPD3 122033Z 03006KT 16/05 A3033 RMK A01 T01640050  RH  047%=      5-min Rain = 0
KPD3 122034Z 03005KT 17/05 A3033 RMK A01 T01670052  RH  046%=      5-min Rain = 0
KPD3 122035Z 05003KT 17/05 A3033 RMK A01 T01690053  RH  046%=      5-min Rain = 0
KPD3 122036Z 33003KT 17/06 A3033 RMK A01 T01730056  RH  046%=      5-min Rain = 0
KPD3 122037Z 34001KT 18/06 A3033 RMK A01 T01780062  RH  047%=      5-min Rain = 0
KPD3 122038Z 07002KT 18/06 A3033 RMK A01 T01810056  RH  044%=      5-min Rain = 0
KPD3 122039Z 05004G10KT 18/07 A3033 RMK A01 T01840065  RH  046%=      5-min Rain = 0
KPD3 122040Z 04008KT 19/06 A3033 RMK A01 T01850056  RH  043%=      5-min Rain = 0
KPD3 122041Z 04007KT 18/05 A3033 RMK A01 T01800050  RH  042%=      5-min Rain = 0
KPD3 122042Z 05006KT 17/05 A3033 RMK A01 T01740048  RH  043%=      5-min Rain = 0
KPD3 122043Z 04008KT 17/05 A3033 RMK A01 T01690049  RH  045%=      5-min Rain = 0
KPD3 122044Z 02010KT 17/05 A3033 RMK A01 T01680051  RH  046%=      5-min Rain = 0
KPD3 122045Z 03008KT 17/05 A3033 RMK A01 T01670053  RH  047%=      5-min Rain = 0
KPD3 122046Z 02008KT 17/05 A3033 RMK A01 T01680051  RH  046%=      5-min Rain = 0
KPD3 122047Z 02009KT 17/05 A3033 RMK A01 T01660049  RH  046%=      5-min Rain = 0
KPD3 122048Z 01007KT 16/05 A3033 RMK A01 T01640050  RH  047%=      5-min Rain = 0
KPD3 122049Z 02007KT 16/05 A3033 RMK A01 T01640053  RH  048%=      5-min Rain = 0
KPD3 122050Z 03007KT 17/05 A3033 RMK A01 T01650050  RH  047%=      5-min Rain = 0
KPD3 122051Z 01006KT 17/05 A3033 RMK A01 T01650053  RH  047%=      5-min Rain = 0
KPD3 122052Z 01005KT 17/05 A3033 RMK A01 T01650052  RH  047%=      5-min Rain = 0
KPD3 122053Z 00003KT 17/05 A3033 RMK A01 T01650051  RH  047%=      5-min Rain = 0
KPD3 122054Z 34004KT 17/06 A3033 RMK A01 T01680056  RH  048%=      5-min Rain = 0
KPD3 122055Z 36004KT 17/05 A3033 RMK A01 T01710054  RH  046%=      5-min Rain = 0
KPD3 122056Z 01002KT 17/05 A3033 RMK A01 T01720050  RH  044%=      5-min Rain = 0
KPD3 122057Z 01005KT 17/05 A3032 RMK A01 T01720053  RH  045%=      5-min Rain = 0
KPD3 122058Z 04004KT 17/05 A3032 RMK A01 T01730053  RH  045%=      5-min Rain = 0
KPD3 122059Z 01002KT 17/05 A3032 RMK A01 T01740052  RH  045%=      5-min Rain = 0
KPD3 122100Z 09002KT 17/05 A3032 RMK A01 T01740052  RH  044%=      5-min Rain = 0
KPD3 122101Z 06007KT 18/06 A3032 RMK A01 T01780060  RH  046%=      5-min Rain = 0
KPD3 122102Z 07008KT 18/06 A3032 RMK A01 T01830059  RH  044%=      5-min Rain = 0
KPD3 122103Z 07008KT 18/06 A3032 RMK A01 T01820056  RH  044%=      5-min Rain = 0
KPD3 122104Z 08010KT 18/06 A3032 RMK A01 T01810060  RH  045%=      5-min Rain = 0
KPD3 122105Z 08009KT 18/06 A3032 RMK A01 T01830056  RH  043%=      5-min Rain = 0
KPD3 122106Z 08007KT 18/06 A3032 RMK A01 T01810057  RH  044%=      5-min Rain = 0
KPD3 122107Z 09006KT 18/06 A3032 RMK A01 T01820056  RH  044%=      5-min Rain = 0
KPD3 122108Z 08006KT 18/06 A3032 RMK A01 T01820056  RH  044%=      5-min Rain = 0
KPD3 122109Z 08007KT 18/05 A3032 RMK A01 T01780052  RH  044%=      5-min Rain = 0
KPD3 122110Z 07005KT 17/05 A3032 RMK A01 T01730049  RH  044%=      5-min Rain = 0
KPD3 122111Z 06002KT 17/05 A3032 RMK A01 T01680048  RH  045%=      5-min Rain = 0
KPD3 122112Z 10001KT 17/05 A3032 RMK A01 T01670053  RH  047%=      5-min Rain = 0
KPD3 122113Z 12003KT 17/05 A3032 RMK A01 T01680052  RH  046%=      5-min Rain = 0
KPD3 122114Z 11008KT 17/05 A3032 RMK A01 T01690051  RH  046%=      5-min Rain = 0
KPD3 122115Z 10008KT 17/05 A3031 RMK A01 T01690052  RH  046%=      5-min Rain = 0
KPD3 122116Z 09004KT 17/05 A3031 RMK A01 T01670047  RH  045%=      5-min Rain = 0
KPD3 122117Z 12003KT 16/05 A3031 RMK A01 T01640048  RH  046%=      5-min Rain = 0
KPD3 122118Z 08002KT 16/05 A3031 RMK A01 T01640052  RH  047%=      5-min Rain = 0
KPD3 122119Z 05008KT 17/05 A3031 RMK A01 T01650051  RH  047%=      5-min Rain = 0
KPD3 122120Z 05007KT 17/06 A3031 RMK A01 T01660055  RH  048%=      5-min Rain = 0
KPD3 122121Z 05006KT 17/05 A3031 RMK A01 T01670054  RH  047%=      5-min Rain = 0
KPD3 122122Z 05007KT 17/05 A3031 RMK A01 T01670054  RH  047%=      5-min Rain = 0
KPD3 122123Z 06006KT 17/06 A3031 RMK A01 T01680056  RH  048%=      5-min Rain = 0
KPD3 122124Z 06006KT 17/05 A3031 RMK A01 T01690054  RH  047%=      5-min Rain = 0
KPD3 122125Z 05005KT 17/05 A3031 RMK A01 T01680054  RH  047%=      5-min Rain = 0
KPD3 122126Z 05005KT 17/05 A3031 RMK A01 T01680053  RH  047%=      5-min Rain = 0
KPD3 122127Z 03009KT 17/06 A3031 RMK A01 T01690056  RH  047%=      5-min Rain = 0
KPD3 122128Z 36008KT 17/05 A3031 RMK A01 T01710053  RH  046%=      5-min Rain = 0
KPD3 122129Z 01008KT 17/06 A3031 RMK A01 T01730057  RH  046%=      5-min Rain = 0
KPD3 122130Z 00009KT 18/06 A3031 RMK A01 T01770058  RH  046%=      5-min Rain = 0
KPD3 122131Z 01010KT 18/06 A3031 RMK A01 T01800057  RH  044%=      5-min Rain = 0
KPD3 122132Z 01006KT 18/05 A3031 RMK A01 T01780052  RH  043%=      5-min Rain = 0
KPD3 122133Z 02008KT 18/06 A3031 RMK A01 T01770056  RH  045%=      5-min Rain = 0
KPD3 122134Z 03006KT 18/06 A3031 RMK A01 T01800059  RH  045%=      5-min Rain = 0
KPD3 122135Z 06006KT 18/06 A3031 RMK A01 T01840061  RH  044%=      5-min Rain = 0
KPD3 122136Z 05007G12KT 19/06 A3031 RMK A01 T01850060  RH  044%=      5-min Rain = 0
KPD3 122137Z 04010KT 19/06 A3031 RMK A01 T01890063  RH  044%=      5-min Rain = 0
KPD3 122138Z 05006KT 19/05 A3031 RMK A01 T01860051  RH  041%=      5-min Rain = 0
KPD3 122139Z 06006KT 18/05 A3031 RMK A01 T01800054  RH  043%=      5-min Rain = 0
KPD3 122140Z 03004KT 18/06 A3031 RMK A01 T01780056  RH  045%=      5-min Rain = 0
KPD3 122141Z 02006KT 18/06 A3031 RMK A01 T01770056  RH  045%=      5-min Rain = 0
KPD3 122142Z 00004KT 18/05 A3031 RMK A01 T01770053  RH  044%=      5-min Rain = 0
KPD3 122143Z 02003KT 18/05 A3031 RMK A01 T01750054  RH  045%=      5-min Rain = 0
KPD3 122144Z 02005KT 17/06 A303 RMK A01 T01740055  RH  045%=      5-min Rain = 0
KPD3 122145Z 02005KT 17/05 A303 RMK A01 T01740054  RH  045%=      5-min Rain = 0
KPD3 122146Z 03006KT 17/05 A303 RMK A01 T01720053  RH  045%=      5-min Rain = 0
KPD3 122147Z 02007KT 17/05 A303 RMK A01 T01710052  RH  045%=      5-min Rain = 0
KPD3 122148Z 02005KT 17/05 A303 RMK A01 T01700052  RH  046%=      5-min Rain = 0
KPD3 122149Z 04003KT 17/05 A303 RMK A01 T01700054  RH  046%=      5-min Rain = 0
KPD3 122150Z 06005KT 17/05 A303 RMK A01 T01700053  RH  046%=      5-min Rain = 0
KPD3 122151Z 06006KT 17/05 A303 RMK A01 T01700054  RH  046%=      5-min Rain = 0
KPD3 122152Z 05005KT 17/05 A303 RMK A01 T01690052  RH  046%=      5-min Rain = 0
KPD3 122153Z 04006KT 17/05 A303 RMK A01 T01680054  RH  047%=      5-min Rain = 0
KPD3 122154Z 04008KT 17/05 A303 RMK A01 T01680053  RH  047%=      5-min Rain = 0
KPD3 122155Z 05008KT 17/06 A303 RMK A01 T01680055  RH  047%=      5-min Rain = 0
KPD3 122156Z 03008KT 17/06 A303 RMK A01 T01690056  RH  047%=      5-min Rain = 0
KPD3 122157Z 03009KT 17/06 A303 RMK A01 T01690055  RH  047%=      5-min Rain = 0
KPD3 122158Z 03010KT 17/05 A303 RMK A01 T01690054  RH  047%=      5-min Rain = 0
KPD3 122159Z 02009KT 17/06 A303 RMK A01 T01680055  RH  047%=      5-min Rain = 0
KPD3 122200Z 02009KT 17/05 A303 RMK A01 T01680054  RH  047%=      5-min Rain = 0
KPD3 122201Z 02009KT 17/06 A303 RMK A01 T01680055  RH  047%=      5-min Rain = 0
KPD3 122202Z 02007KT 17/05 A303 RMK A01 T01680054  RH  047%=      5-min Rain = 0
KPD3 122203Z 02008KT 17/05 A303 RMK A01 T01680054  RH  047%=      5-min Rain = 0
KPD3 122204Z 02007KT 17/05 A303 RMK A01 T01680053  RH  046%=      5-min Rain = 0
KPD3 122205Z 02006KT 17/05 A303 RMK A01 T01680052  RH  046%=      5-min Rain = 0
KPD3 122206Z 35004KT 17/05 A303 RMK A01 T01680053  RH  047%=      5-min Rain = 0
KPD3 122207Z 34003KT 17/05 A303 RMK A01 T01670052  RH  046%=      5-min Rain = 0
KPD3 122208Z 35004KT 17/05 A303 RMK A01 T01670053  RH  047%=      5-min Rain = 0
KPD3 122209Z 01005KT 17/06 A303 RMK A01 T01680055  RH  047%=      5-min Rain = 0
KPD3 122210Z 00006KT 17/06 A303 RMK A01 T01690056  RH  047%=      5-min Rain = 0
KPD3 122211Z 00005KT 17/05 A303 RMK A01 T01700054  RH  046%=      5-min Rain = 0
KPD3 122212Z 01004KT 17/05 A303 RMK A01 T01710052  RH  045%=      5-min Rain = 0
KPD3 122213Z 03007KT 17/06 A303 RMK A01 T01730059  RH  047%=      5-min Rain = 0
KPD3 122214Z 07008KT 18/06 A303 RMK A01 T01780059  RH  045%=      5-min Rain = 0
KPD3 122215Z 07007KT 18/05 A303 RMK A01 T01770054  RH  044%=      5-min Rain = 0
KPD3 122216Z 08010KT 18/06 A303 RMK A01 T01760056  RH  045%=      5-min Rain = 0
KPD3 122217Z 06008KT 18/06 A303 RMK A01 T01750057  RH  046%=      5-min Rain = 0
KPD3 122218Z 07008KT 18/06 A303 RMK A01 T01760057  RH  046%=      5-min Rain = 0
KPD3 122219Z 06010KT 18/05 A303 RMK A01 T01770054  RH  044%=      5-min Rain = 0
KPD3 122220Z 06008KT 18/05 A303 RMK A01 T01750054  RH  045%=      5-min Rain = 0
KPD3 122221Z 05007KT 17/06 A303 RMK A01 T01730056  RH  046%=      5-min Rain = 0
KPD3 122222Z 04009KT 17/06 A303 RMK A01 T01740055  RH  045%=      5-min Rain = 0
KPD3 122223Z 05007KT 17/05 A303 RMK A01 T01740053  RH  045%=      5-min Rain = 0
KPD3 122224Z 03008KT 17/06 A303 RMK A01 T01740056  RH  046%=      5-min Rain = 0
KPD3 122225Z 05006KT 17/05 A303 RMK A01 T01730052  RH  045%=      5-min Rain = 0
KPD3 122226Z 06007KT 17/05 A303 RMK A01 T01720053  RH  046%=      5-min Rain = 0
KPD3 122227Z 07008KT 17/06 A303 RMK A01 T01710055  RH  046%=      5-min Rain = 0
KPD3 122228Z 04007KT 17/06 A303 RMK A01 T01710055  RH  046%=      5-min Rain = 0
KPD3 122229Z 04008KT 17/06 A303 RMK A01 T01720056  RH  046%=      5-min Rain = 0
KPD3 122230Z 04007KT 17/05 A303 RMK A01 T01720054  RH  045%=      5-min Rain = 0
KPD3 122231Z 04005KT 17/05 A303 RMK A01 T01720052  RH  045%=      5-min Rain = 0
KPD3 122232Z 02003KT 17/05 A303 RMK A01 T01710053  RH  046%=      5-min Rain = 0
KPD3 122233Z 02007KT 17/05 A303 RMK A01 T01710054  RH  046%=      5-min Rain = 0
KPD3 122234Z 01008KT 17/05 A303 RMK A01 T01720054  RH  046%=      5-min Rain = 0
KPD3 122235Z 01008KT 17/05 A303 RMK A01 T01730053  RH  045%=      5-min Rain = 0
KPD3 122236Z 02006KT 17/05 A303 RMK A01 T01740053  RH  045%=      5-min Rain = 0
KPD3 122237Z 04007KT 18/06 A303 RMK A01 T01750055  RH  045%=      5-min Rain = 0
KPD3 122238Z 05006KT 18/05 A303 RMK A01 T01760052  RH  044%=      5-min Rain = 0
KPD3 122239Z 03004KT 18/06 A303 RMK A01 T01770058  RH  045%=      5-min Rain = 0
KPD3 122240Z 05007KT 18/06 A303 RMK A01 T01790056  RH  044%=      5-min Rain = 0
KPD3 122241Z 07010KT 18/06 A303 RMK A01 T01790055  RH  044%=      5-min Rain = 0
KPD3 122242Z 07006KT 18/05 A303 RMK A01 T01770054  RH  044%=      5-min Rain = 0
KPD3 122243Z 05008KT 18/06 A303 RMK A01 T01750056  RH  045%=      5-min Rain = 0
KPD3 122244Z 04009KT 18/06 A303 RMK A01 T01750055  RH  045%=      5-min Rain = 0
KPD3 122245Z 04008KT 18/06 A303 RMK A01 T01750057  RH  046%=      5-min Rain = 0
KPD3 122246Z 05011KT 18/06 A3029 RMK A01 T01750055  RH  045%=      5-min Rain = 0
KPD3 122247Z 06009KT 17/05 A3029 RMK A01 T01730053  RH  045%=      5-min Rain = 0
KPD3 122248Z 06008KT 17/05 A3029 RMK A01 T01720054  RH  046%=      5-min Rain = 0
KPD3 122249Z 05006KT 17/05 A3029 RMK A01 T01710052  RH  046%=      5-min Rain = 0
KPD3 122250Z 06005KT 17/06 A3029 RMK A01 T01700055  RH  047%=      5-min Rain = 0
KPD3 122251Z 07008KT 17/05 A3029 RMK A01 T01710054  RH  046%=      5-min Rain = 0
KPD3 122252Z 08006KT 17/05 A3029 RMK A01 T01720053  RH  046%=      5-min Rain = 0
KPD3 122253Z 07005KT 17/06 A3029 RMK A01 T01720056  RH  046%=      5-min Rain = 0
KPD3 122254Z 04008KT 17/06 A3029 RMK A01 T01740058  RH  046%=      5-min Rain = 0
KPD3 122255Z 03007KT 18/06 A3029 RMK A01 T01760055  RH  045%=      5-min Rain = 0
KPD3 122256Z 03007KT 18/06 A3029 RMK A01 T01760055  RH  045%=      5-min Rain = 0
KPD3 122257Z 03007KT 18/06 A303 RMK A01 T01750057  RH  046%=      5-min Rain = 0
KPD3 122258Z 02007KT 18/06 A3029 RMK A01 T01750059  RH  046%=      5-min Rain = 0
KPD3 122259Z 02009KT 18/06 A3029 RMK A01 T01770057  RH  045%=      5-min Rain = 0
KPD3 122300Z 02009KT 18/05 A303 RMK A01 T01760053  RH  044%=      5-min Rain = 0
KPD3 122301Z 01005KT 17/05 A303 RMK A01 T01740053  RH  045%=      5-min Rain = 0
KPD3 122302Z 01005KT 17/05 A3029 RMK A01 T01720054  RH  046%=      5-min Rain = 0
KPD3 122303Z 05004KT 17/05 A3029 RMK A01 T01720053  RH  045%=      5-min Rain = 0
KPD3 122304Z 08003KT 17/05 A3029 RMK A01 T01720050  RH  044%=      5-min Rain = 0
KPD3 122305Z 05003KT 17/05 A3029 RMK A01 T01710053  RH  046%=      5-min Rain = 0
KPD3 122306Z 06005KT 17/06 A3029 RMK A01 T01710055  RH  046%=      5-min Rain = 0
KPD3 122307Z 04006KT 17/05 A3029 RMK A01 T01720054  RH  046%=      5-min Rain = 0
KPD3 122308Z 03010KT 17/06 A3029 RMK A01 T01730058  RH  047%=      5-min Rain = 0
KPD3 122309Z 03008KT 17/06 A303 RMK A01 T01740057  RH  046%=      5-min Rain = 0
KPD3 122310Z 01008KT 18/06 A3029 RMK A01 T01750057  RH  046%=      5-min Rain = 0
KPD3 122311Z 35006KT 18/06 A3029 RMK A01 T01750057  RH  046%=      5-min Rain = 0
KPD3 122312Z 00004KT 18/06 A3029 RMK A01 T01750058  RH  046%=      5-min Rain = 0
KPD3 122313Z 06004KT 18/06 A3029 RMK A01 T01750057  RH  046%=      5-min Rain = 0
KPD3 122314Z 05004KT 18/06 A3029 RMK A01 T01750057  RH  046%=      5-min Rain = 0
KPD3 122315Z 05006KT 18/06 A3029 RMK A01 T01750059  RH  046%=      5-min Rain = 0
KPD3 122316Z 04007KT 18/06 A303 RMK A01 T01750058  RH  046%=      5-min Rain = 0
KPD3 122317Z 04007KT 18/06 A3029 RMK A01 T01750057  RH  046%=      5-min Rain = 0
KPD3 122318Z 05009KT 18/06 A3029 RMK A01 T01750056  RH  045%=      5-min Rain = 0
KPD3 122319Z 03009KT 17/06 A303 RMK A01 T01730055  RH  046%=      5-min Rain = 0
KPD3 122320Z 02010KT 17/05 A303 RMK A01 T01720054  RH  046%=      5-min Rain = 0
KPD3 122321Z 02008KT 17/05 A303 RMK A01 T01710054  RH  046%=      5-min Rain = 0
KPD3 122322Z 03009KT 17/06 A303 RMK A01 T01700055  RH  046%=      5-min Rain = 0
KPD3 122323Z 03006KT 17/05 A303 RMK A01 T01700054  RH  046%=      5-min Rain = 0
KPD3 122324Z 03006KT 17/06 A303 RMK A01 T01700056  RH  047%=      5-min Rain = 0
KPD3 122325Z 03008KT 17/06 A303 RMK A01 T01710056  RH  047%=      5-min Rain = 0
KPD3 122326Z 05006KT 17/05 A303 RMK A01 T01710054  RH  046%=      5-min Rain = 0
KPD3 122327Z 05006KT 17/05 A303 RMK A01 T01710054  RH  046%=      5-min Rain = 0
KPD3 122328Z 01007KT 17/06 A303 RMK A01 T01710055  RH  046%=      5-min Rain = 0
KPD3 122329Z 04008KT 17/06 A3029 RMK A01 T01740057  RH  046%=      5-min Rain = 0
KPD3 122330Z 04009KT 18/06 A303 RMK A01 T01750056  RH  045%=      5-min Rain = 0
KPD3 122331Z 03009KT 18/06 A303 RMK A01 T01750056  RH  046%=      5-min Rain = 0
KPD3 122332Z 04010KT 17/06 A303 RMK A01 T01740056  RH  046%=      5-min Rain = 0
KPD3 122333Z 03009KT 17/05 A303 RMK A01 T01720053  RH  046%=      5-min Rain = 0
KPD3 122334Z 03008KT 17/05 A303 RMK A01 T01700052  RH  046%=      5-min Rain = 0
KPD3 122335Z 03006KT 17/05 A303 RMK A01 T01680052  RH  046%=      5-min Rain = 0
KPD3 122336Z 02007KT 17/06 A303 RMK A01 T01680055  RH  047%=      5-min Rain = 0
KPD3 122337Z 05007KT 17/06 A303 RMK A01 T01690055  RH  047%=      5-min Rain = 0
KPD3 122338Z 05007KT 17/05 A3029 RMK A01 T01690053  RH  046%=      5-min Rain = 0
KPD3 122339Z 04006KT 17/05 A3029 RMK A01 T01680054  RH  047%=      5-min Rain = 0
KPD3 122340Z 03005KT 17/06 A3029 RMK A01 T01690055  RH  047%=      5-min Rain = 0
KPD3 122341Z 05006KT 17/06 A3029 RMK A01 T01700056  RH  047%=      5-min Rain = 0
KPD3 122342Z 04006KT 17/06 A3029 RMK A01 T01710056  RH  047%=      5-min Rain = 0
KPD3 122343Z 04007KT 17/06 A3029 RMK A01 T01710057  RH  047%=      5-min Rain = 0
KPD3 122344Z 04006KT 17/06 A3029 RMK A01 T01720055  RH  046%=      5-min Rain = 0
KPD3 122345Z 04007KT 17/06 A3029 RMK A01 T01720057  RH  047%=      5-min Rain = 0
KPD3 122346Z 04009KT 17/06 A3029 RMK A01 T01720055  RH  046%=      5-min Rain = 0
KPD3 122347Z 04010KT 17/05 A3029 RMK A01 T01710054  RH  046%=      5-min Rain = 0
KPD3 122348Z 05009KT 17/05 A3029 RMK A01 T01690052  RH  046%=      5-min Rain = 0
KPD3 122349Z 05009KT 17/05 A3029 RMK A01 T01680053  RH  046%=      5-min Rain = 0
KPD3 122350Z 05008KT 17/06 A3029 RMK A01 T01680055  RH  047%=      5-min Rain = 0
KPD3 122351Z 05007KT 17/05 A3029 RMK A01 T01670054  RH  047%=      5-min Rain = 0
KPD3 122352Z 04005KT 17/05 A3029 RMK A01 T01670053  RH  047%=      5-min Rain = 0
KPD3 122353Z 03005KT 17/05 A3029 RMK A01 T01670052  RH  047%=      5-min Rain = 0
KPD3 122354Z 03005KT 17/05 A3029 RMK A01 T01670053  RH  047%=      5-min Rain = 0
KPD3 122355Z 04008KT 17/05 A3029 RMK A01 T01670054  RH  047%=      5-min Rain = 0
KPD3 122356Z 03008KT 17/06 A303 RMK A01 T01680056  RH  047%=      5-min Rain = 0
KPD3 122357Z 05006KT 17/05 A303 RMK A01 T01690054  RH  047%=      5-min Rain = 0
KPD3 122358Z 05007KT 17/06 A303 RMK A01 T01690055  RH  047%=      5-min Rain = 0
KPD3 122359Z 04008KT 17/05 A3029 RMK A01 T01690054  RH  047%=      5-min Rain = 0
KPD3 130000Z 05006KT 17/05 A3029 RMK A01 T01690054  RH  047%=      5-min Rain = 0
KPD3 130001Z 05005KT 17/05 A3029 RMK A01 T01680053  RH  047%=      5-min Rain = 0
KPD3 130002Z 03005KT 17/05 A3029 RMK A01 T01680054  RH  047%=      5-min Rain = 0
KPD3 130003Z 04006KT 17/05 A3029 RMK A01 T01680054  RH  047%=      5-min Rain = 0
KPD3 130004Z 03005KT 17/05 A3029 RMK A01 T01680053  RH  047%=      5-min Rain = 0
KPD3 130005Z 02004KT 17/06 A3029 RMK A01 T01680056  RH  047%=      5-min Rain = 0
KPD3 130006Z 04005KT 17/05 A3029 RMK A01 T01680054  RH  047%=      5-min Rain = 0
KPD3 130007Z 04005KT 17/05 A3029 RMK A01 T01680053  RH  047%=      5-min Rain = 0
KPD3 130008Z 04005KT 17/05 A3029 RMK A01 T01680053  RH  047%=      5-min Rain = 0
KPD3 130009Z 03004KT 17/05 A3029 RMK A01 T01670052  RH  046%=      5-min Rain = 0
KPD3 130010Z 04004KT 17/05 A3029 RMK A01 T01670052  RH  046%=      5-min Rain = 0
KPD3 130011Z 03004KT 17/05 A3029 RMK A01 T01670053  RH  047%=      5-min Rain = 0
KPD3 130012Z 04005KT 17/05 A3029 RMK A01 T01670053  RH  047%=      5-min Rain = 0
KPD3 130013Z 03005KT 17/05 A3029 RMK A01 T01670051  RH  046%=      5-min Rain = 0
KPD3 130014Z 03004KT 17/05 A3029 RMK A01 T01670050  RH  046%=      5-min Rain = 0
KPD3 130015Z 03003KT 17/05 A3029 RMK A01 T01670052  RH  047%=      5-min Rain = 0
KPD3 130016Z 04004KT 17/05 A3029 RMK A01 T01680054  RH  047%=      5-min Rain = 0
KPD3 130017Z 07006KT 17/06 A3029 RMK A01 T01680055  RH  047%=      5-min Rain = 0
KPD3 130018Z 07007KT 17/06 A3029 RMK A01 T01680056  RH  047%=      5-min Rain = 0
KPD3 130019Z 09006KT 17/06 A3029 RMK A01 T01680055  RH  047%=      5-min Rain = 0
KPD3 130020Z 08006KT 17/05 A3029 RMK A01 T01670054  RH  047%=      5-min Rain = 0
KPD3 130021Z 08006KT 17/06 A3029 RMK A01 T01670056  RH  048%=      5-min Rain = 0
KPD3 130022Z 08006KT 17/06 A3029 RMK A01 T01660055  RH  048%=      5-min Rain = 0
KPD3 130023Z 08005KT 17/05 A3029 RMK A01 T01660053  RH  047%=      5-min Rain = 0
KPD3 130024Z 07006KT 17/05 A3029 RMK A01 T01660053  RH  047%=      5-min Rain = 0
KPD3 130025Z 07005KT 17/05 A3029 RMK A01 T01650052  RH  047%=      5-min Rain = 0
KPD3 130026Z 08005KT 17/05 A3029 RMK A01 T01650053  RH  048%=      5-min Rain = 0
KPD3 130027Z 06005KT 17/05 A3029 RMK A01 T01650053  RH  048%=      5-min Rain = 0
KPD3 130028Z 06006KT 17/05 A3029 RMK A01 T01650054  RH  048%=      5-min Rain = 0
KPD3 130029Z 07006KT 17/05 A3029 RMK A01 T01650053  RH  047%=      5-min Rain = 0
KPD3 130030Z 07005KT 17/05 A3029 RMK A01 T01650052  RH  047%=      5-min Rain = 0
KPD3 130031Z 05007KT 17/05 A3029 RMK A01 T01650053  RH  047%=      5-min Rain = 0
KPD3 130032Z 03006KT 17/06 A3029 RMK A01 T01660055  RH  048%=      5-min Rain = 0
KPD3 130033Z 02007KT 17/05 A3029 RMK A01 T01660054  RH  048%=      5-min Rain = 0
KPD3 130034Z 02008KT 17/06 A3029 RMK A01 T01670055  RH  047%=      5-min Rain = 0
KPD3 130035Z 02007KT 17/06 A3029 RMK A01 T01670055  RH  047%=      5-min Rain = 0
KPD3 130036Z 03007KT 17/05 A3029 RMK A01 T01670054  RH  047%=      5-min Rain = 0
KPD3 130037Z 03006KT 17/05 A3029 RMK A01 T01660054  RH  047%=      5-min Rain = 0
KPD3 130038Z 03006KT 17/06 A3029 RMK A01 T01660055  RH  048%=      5-min Rain = 0
KPD3 130039Z 05006KT 17/06 A3029 RMK A01 T01650055  RH  048%=      5-min Rain = 0
KPD3 130040Z 06006KT 17/06 A3029 RMK A01 T01650055  RH  048%=      5-min Rain = 0
KPD3 130041Z 06006KT 17/06 A3029 RMK A01 T01650055  RH  048%=      5-min Rain = 0
KPD3 130042Z 06005KT 16/06 A3029 RMK A01 T01640055  RH  048%=      5-min Rain = 0
KPD3 130043Z 06005KT 16/06 A3029 RMK A01 T01640055  RH  049%=      5-min Rain = 0
KPD3 130044Z 05005KT 16/06 A3029 RMK A01 T01630056  RH  049%=      5-min Rain = 0
KPD3 130045Z 05006KT 16/06 A3029 RMK A01 T01630055  RH  049%=      5-min Rain = 0
KPD3 130046Z 05005KT 16/06 A3029 RMK A01 T01630055  RH  049%=      5-min Rain = 0
KPD3 130047Z 05005KT 16/06 A3029 RMK A01 T01630056  RH  049%=      5-min Rain = 0
KPD3 130048Z 05007KT 16/06 A3029 RMK A01 T01630055  RH  049%=      5-min Rain = 0
KPD3 130049Z 05007KT 16/06 A3029 RMK A01 T01630056  RH  049%=      5-min Rain = 0
KPD3 130050Z 05006KT 16/06 A3029 RMK A01 T01630056  RH  049%=      5-min Rain = 0
KPD3 130051Z 05007KT 16/05 A3029 RMK A01 T01630054  RH  049%=      5-min Rain = 0
KPD3 130052Z 05006KT 16/06 A3029 RMK A01 T01630055  RH  049%=      5-min Rain = 0
KPD3 130053Z 06008KT 16/06 A3029 RMK A01 T01620055  RH  049%=      5-min Rain = 0
KPD3 130054Z 05008KT 16/05 A3029 RMK A01 T01610054  RH  049%=      5-min Rain = 0
KPD3 130055Z 06008KT 16/05 A3029 RMK A01 T01610054  RH  049%=      5-min Rain = 0
KPD3 130056Z 05007KT 16/05 A3029 RMK A01 T01600053  RH  049%=      5-min Rain = 0
KPD3 130057Z 05008KT 16/05 A3029 RMK A01 T01600054  RH  049%=      5-min Rain = 0
KPD3 130058Z 06007KT 16/05 A3029 RMK A01 T01600054  RH  050%=      5-min Rain = 0
KPD3 130059Z 06006KT 16/06 A3029 RMK A01 T01590055  RH  050%=      5-min Rain = 0
KPD3 130100Z 06007KT 16/06 A3029 RMK A01 T01600055  RH  050%=      5-min Rain = 0
KPD3 130101Z 06007KT 16/06 A3029 RMK A01 T01590055  RH  050%=      5-min Rain = 0
KPD3 130102Z 06006KT 16/06 A3029 RMK A01 T01600055  RH  050%=      5-min Rain = 0
KPD3 130103Z 05006KT 16/06 A3029 RMK A01 T01590055  RH  050%=      5-min Rain = 0
KPD3 130104Z 05005KT 16/06 A3029 RMK A01 T01600055  RH  050%=      5-min Rain = 0
KPD3 130105Z 04005KT 16/06 A3029 RMK A01 T01590056  RH  050%=      5-min Rain = 0
KPD3 130106Z 04007KT 16/06 A3029 RMK A01 T01600056  RH  050%=      5-min Rain = 0
KPD3 130107Z 04006KT 16/05 A3029 RMK A01 T01590054  RH  050%=      5-min Rain = 0
KPD3 130108Z 04006KT 16/05 A3029 RMK A01 T01600054  RH  050%=      5-min Rain = 0
KPD3 130109Z 04005KT 16/06 A3029 RMK A01 T01600055  RH  050%=      5-min Rain = 0
KPD3 130110Z 05005KT 16/06 A3029 RMK A01 T01590056  RH  050%=      5-min Rain = 0
KPD3 130111Z 05005KT 16/06 A3029 RMK A01 T01590055  RH  050%=      5-min Rain = 0
KPD3 130112Z 06005KT 16/06 A3029 RMK A01 T01590056  RH  050%=      5-min Rain = 0
KPD3 130113Z 05006KT 16/06 A303 RMK A01 T01590056  RH  050%=      5-min Rain = 0
KPD3 130114Z 05005KT 16/06 A303 RMK A01 T01590056  RH  050%=      5-min Rain = 0
KPD3 130115Z 05004KT 16/06 A303 RMK A01 T01590057  RH  051%=      5-min Rain = 0
KPD3 130116Z 05004KT 16/06 A303 RMK A01 T01580058  RH  051%=      5-min Rain = 0
KPD3 130117Z 05005KT 16/06 A303 RMK A01 T01580057  RH  051%=      5-min Rain = 0
KPD3 130118Z 05005KT 16/06 A303 RMK A01 T01580056  RH  050%=      5-min Rain = 0
KPD3 130119Z 05005KT 16/06 A303 RMK A01 T01580055  RH  050%=      5-min Rain = 0
KPD3 130120Z 05005KT 16/06 A303 RMK A01 T01580056  RH  051%=      5-min Rain = 0
KPD3 130121Z 04005KT 16/06 A303 RMK A01 T01580057  RH  051%=      5-min Rain = 0
KPD3 130122Z 04005KT 16/06 A303 RMK A01 T01580057  RH  051%=      5-min Rain = 0
KPD3 130123Z 05004KT 16/06 A303 RMK A01 T01580057  RH  051%=      5-min Rain = 0
KPD3 130124Z 04004KT 16/06 A303 RMK A01 T01580059  RH  052%=      5-min Rain = 0
KPD3 130125Z 04006KT 16/06 A303 RMK A01 T01570058  RH  052%=      5-min Rain = 0
KPD3 130126Z 05007KT 16/06 A303 RMK A01 T01570055  RH  051%=      5-min Rain = 0
KPD3 130127Z 05007KT 16/05 A303 RMK A01 T01570054  RH  050%=      5-min Rain = 0
KPD3 130128Z 05006KT 16/05 A303 RMK A01 T01580054  RH  050%=      5-min Rain = 0
KPD3 130129Z 05006KT 16/05 A303 RMK A01 T01580054  RH  050%=      5-min Rain = 0
KPD3 130130Z 05006KT 16/05 A303 RMK A01 T01580053  RH  050%=      5-min Rain = 0
KPD3 130131Z 05005KT 16/06 A303 RMK A01 T01580056  RH  050%=      5-min Rain = 0
KPD3 130132Z 05005KT 16/06 A303 RMK A01 T01580056  RH  051%=      5-min Rain = 0
KPD3 130133Z 05004KT 16/06 A303 RMK A01 T01570056  RH  051%=      5-min Rain = 0
KPD3 130134Z 05004KT 16/06 A303 RMK A01 T01570056  RH  051%=      5-min Rain = 0
KPD3 130135Z 05004KT 16/06 A303 RMK A01 T01570057  RH  052%=      5-min Rain = 0
KPD3 130136Z 05004KT 16/06 A303 RMK A01 T01560058  RH  052%=      5-min Rain = 0
KPD3 130137Z 05004KT 16/06 A303 RMK A01 T01560058  RH  052%=      5-min Rain = 0
KPD3 130138Z 05004KT 16/06 A303 RMK A01 T01550058  RH  052%=      5-min Rain = 0
KPD3 130139Z 05004KT 16/06 A303 RMK A01 T01550058  RH  052%=      5-min Rain = 0
KPD3 130140Z 05004KT 16/06 A303 RMK A01 T01550058  RH  052%=      5-min Rain = 0
KPD3 130141Z 05004KT 16/06 A303 RMK A01 T01550058  RH  052%=      5-min Rain = 0
KPD3 130142Z 05004KT 16/06 A303 RMK A01 T01550059  RH  053%=      5-min Rain = 0
KPD3 130143Z 05004KT 16/06 A303 RMK A01 T01550059  RH  053%=      5-min Rain = 0
KPD3 130144Z 05004KT 15/06 A303 RMK A01 T01540057  RH  052%=      5-min Rain = 0
KPD3 130145Z 06004KT 16/06 A303 RMK A01 T01550057  RH  052%=      5-min Rain = 0
KPD3 130146Z 05004KT 15/06 A303 RMK A01 T01540058  RH  053%=      5-min Rain = 0
KPD3 130147Z 05004KT 15/06 A303 RMK A01 T01540058  RH  053%=      5-min Rain = 0
KPD3 130148Z 05004KT 15/06 A303 RMK A01 T01540059  RH  053%=      5-min Rain = 0
KPD3 130149Z 05004KT 15/06 A3031 RMK A01 T01540059  RH  053%=      5-min Rain = 0
KPD3 130150Z 05004KT 15/06 A3031 RMK A01 T01540060  RH  054%=      5-min Rain = 0
KPD3 130151Z 05003KT 15/06 A3031 RMK A01 T01530060  RH  054%=      5-min Rain = 0
KPD3 130152Z 05003KT 15/06 A3031 RMK A01 T01530060  RH  054%=      5-min Rain = 0
KPD3 130153Z 05003KT 15/06 A3031 RMK A01 T01530060  RH  054%=      5-min Rain = 0
KPD3 130154Z 05003KT 15/06 A3031 RMK A01 T01530061  RH  054%=      5-min Rain = 0
KPD3 130155Z 05003KT 15/06 A3031 RMK A01 T01530061  RH  054%=      5-min Rain = 0
KPD3 130156Z 04003KT 15/06 A3031 RMK A01 T01520062  RH  055%=      5-min Rain = 0
KPD3 130157Z 05003KT 15/06 A3031 RMK A01 T01520062  RH  055%=      5-min Rain = 0
KPD3 130158Z 05003KT 15/06 A3031 RMK A01 T01520063  RH  055%=      5-min Rain = 0
KPD3 130159Z 05003KT 15/06 A3031 RMK A01 T01510064  RH  056%=      5-min Rain = 0
KPD3 130200Z 05003KT 15/06 A3031 RMK A01 T01510064  RH  056%=      5-min Rain = 0
KPD3 130201Z 06004KT 15/06 A3031 RMK A01 T01510064  RH  056%=      5-min Rain = 0
KPD3 130202Z 06004KT 15/07 A3031 RMK A01 T01510065  RH  056%=      5-min Rain = 0
KPD3 130203Z 05004KT 15/07 A3031 RMK A01 T01500066  RH  057%=      5-min Rain = 0
KPD3 130204Z 05004KT 15/07 A3031 RMK A01 T01500066  RH  057%=      5-min Rain = 0
KPD3 130205Z 05004KT 15/07 A3031 RMK A01 T01500067  RH  058%=      5-min Rain = 0
KPD3 130206Z 05004KT 15/07 A3031 RMK A01 T01500066  RH  057%=      5-min Rain = 0
KPD3 130207Z 05004KT 15/07 A3031 RMK A01 T01490066  RH  057%=      5-min Rain = 0
KPD3 130208Z 05004KT 15/07 A3031 RMK A01 T01490065  RH  057%=      5-min Rain = 0
KPD3 130209Z 05004KT 15/07 A3031 RMK A01 T01500065  RH  057%=      5-min Rain = 0
KPD3 130210Z 05004KT 15/07 A3031 RMK A01 T01490065  RH  057%=      5-min Rain = 0
KPD3 130211Z 05004KT 15/06 A3031 RMK A01 T01490064  RH  057%=      5-min Rain = 0
KPD3 130212Z 05004KT 15/06 A3031 RMK A01 T01490064  RH  057%=      5-min Rain = 0
KPD3 130213Z 05003KT 15/07 A3031 RMK A01 T01490065  RH  057%=      5-min Rain = 0
KPD3 130214Z 05004KT 15/07 A3031 RMK A01 T01490065  RH  057%=      5-min Rain = 0
KPD3 130215Z 05004KT 15/07 A3031 RMK A01 T01490065  RH  057%=      5-min Rain = 0
KPD3 130216Z 05004KT 15/07 A3031 RMK A01 T01490065  RH  057%=      5-min Rain = 0
KPD3 130217Z 05004KT 15/07 A3031 RMK A01 T01490066  RH  057%=      5-min Rain = 0
KPD3 130218Z 05004KT 15/07 A3031 RMK A01 T01490067  RH  058%=      5-min Rain = 0
KPD3 130219Z 05004KT 15/07 A3031 RMK A01 T01490067  RH  058%=      5-min Rain = 0
KPD3 130220Z 05004KT 15/07 A3032 RMK A01 T01480067  RH  058%=      5-min Rain = 0
KPD3 130221Z 05004KT 15/07 A3032 RMK A01 T01490068  RH  058%=      5-min Rain = 0
KPD3 130222Z 06004KT 15/07 A3032 RMK A01 T01480067  RH  058%=      5-min Rain = 0
KPD3 130223Z 06004KT 15/07 A3032 RMK A01 T01480068  RH  059%=      5-min Rain = 0
KPD3 130224Z 06004KT 15/07 A3032 RMK A01 T01480068  RH  059%=      5-min Rain = 0
KPD3 130225Z 05004KT 15/07 A3032 RMK A01 T01470067  RH  059%=      5-min Rain = 0
KPD3 130226Z 05005KT 15/07 A3032 RMK A01 T01480067  RH  059%=      5-min Rain = 0
KPD3 130227Z 05005KT 15/07 A3032 RMK A01 T01480067  RH  058%=      5-min Rain = 0
KPD3 130228Z 05005KT 15/07 A3032 RMK A01 T01480067  RH  058%=      5-min Rain = 0
KPD3 130229Z 05005KT 15/07 A3032 RMK A01 T01470066  RH  058%=      5-min Rain = 0
KPD3 130230Z 05005KT 15/06 A3032 RMK A01 T01480064  RH  057%=      5-min Rain = 0
KPD3 130231Z 05006KT 15/06 A3032 RMK A01 T01470063  RH  057%=      5-min Rain = 0
KPD3 130232Z 05005KT 15/06 A3032 RMK A01 T01480062  RH  056%=      5-min Rain = 0
KPD3 130233Z 06006KT 15/06 A3032 RMK A01 T01490063  RH  057%=      5-min Rain = 0
KPD3 130234Z 06006KT 15/06 A3032 RMK A01 T01490063  RH  056%=      5-min Rain = 0
KPD3 130235Z 06006KT 15/06 A3032 RMK A01 T01480062  RH  056%=      5-min Rain = 0
KPD3 130236Z 06006KT 15/06 A3032 RMK A01 T01490061  RH  056%=      5-min Rain = 0
KPD3 130237Z 07005KT 15/06 A3032 RMK A01 T01490061  RH  056%=      5-min Rain = 0
KPD3 130238Z 06005KT 15/06 A3032 RMK A01 T01490061  RH  056%=      5-min Rain = 0
KPD3 130239Z 07005KT 15/06 A3032 RMK A01 T01500062  RH  056%=      5-min Rain = 0
KPD3 130240Z 07004KT 15/06 A3032 RMK A01 T01490061  RH  055%=      5-min Rain = 0
KPD3 130241Z 07004KT 15/06 A3032 RMK A01 T01500062  RH  056%=      5-min Rain = 0
KPD3 130242Z 07004KT 15/06 A3032 RMK A01 T01490062  RH  056%=      5-min Rain = 0
KPD3 130243Z 07003KT 15/06 A3032 RMK A01 T01490061  RH  056%=      5-min Rain = 0
KPD3 130244Z 07004KT 15/06 A3032 RMK A01 T01490062  RH  056%=      5-min Rain = 0
KPD3 130245Z 08004KT 15/06 A3032 RMK A01 T01490062  RH  056%=      5-min Rain = 0
KPD3 130246Z 08004KT 15/06 A3033 RMK A01 T01490063  RH  056%=      5-min Rain = 0
KPD3 130247Z 08004KT 15/06 A3033 RMK A01 T01490062  RH  056%=      5-min Rain = 0
KPD3 130248Z 08005KT 15/06 A3033 RMK A01 T01480062  RH  056%=      5-min Rain = 0
KPD3 130249Z 08004KT 15/06 A3033 RMK A01 T01480063  RH  056%=      5-min Rain = 0
KPD3 130250Z 08005KT 15/06 A3033 RMK A01 T01480063  RH  057%=      5-min Rain = 0
KPD3 130251Z 08005KT 15/06 A3033 RMK A01 T01480063  RH  057%=      5-min Rain = 0
KPD3 130252Z 08005KT 15/06 A3033 RMK A01 T01480064  RH  057%=      5-min Rain = 0
KPD3 130253Z 09005KT 15/06 A3033 RMK A01 T01480064  RH  057%=      5-min Rain = 0
KPD3 130254Z 08004KT 15/06 A3033 RMK A01 T01480062  RH  056%=      5-min Rain = 0
KPD3 130255Z 09004KT 15/06 A3033 RMK A01 T01480063  RH  057%=      5-min Rain = 0
KPD3 130256Z 09004KT 15/06 A3033 RMK A01 T01470062  RH  057%=      5-min Rain = 0
KPD3 130257Z 09005KT 15/06 A3033 RMK A01 T01480062  RH  057%=      5-min Rain = 0
KPD3 130258Z 09004KT 15/06 A3033 RMK A01 T01480061  RH  056%=      5-min Rain = 0
KPD3 130259Z 09005KT 15/06 A3033 RMK A01 T01470062  RH  056%=      5-min Rain = 0
KPD3 130300Z 09005KT 15/06 A3033 RMK A01 T01480063  RH  057%=      5-min Rain = 0
KPD3 130301Z 09005KT 15/06 A3033 RMK A01 T01470063  RH  057%=      5-min Rain = 0
KPD3 130302Z 09005KT 15/06 A3033 RMK A01 T01470064  RH  057%=      5-min Rain = 0
KPD3 130303Z 09005KT 15/06 A3033 RMK A01 T01460063  RH  057%=      5-min Rain = 0
KPD3 130304Z 09004KT 15/06 A3033 RMK A01 T01460063  RH  057%=      5-min Rain = 0
KPD3 130305Z 10005KT 15/06 A3033 RMK A01 T01460064  RH  058%=      5-min Rain = 0
KPD3 130306Z 10005KT 15/06 A3033 RMK A01 T01460064  RH  058%=      5-min Rain = 0
KPD3 130307Z 10005KT 15/06 A3033 RMK A01 T01450064  RH  058%=      5-min Rain = 0
KPD3 130308Z 09005KT 14/06 A3033 RMK A01 T01440064  RH  059%=      5-min Rain = 0
KPD3 130309Z 09006KT 14/06 A3033 RMK A01 T01440064  RH  059%=      5-min Rain = 0
KPD3 130310Z 09006KT 14/06 A3033 RMK A01 T01430063  RH  058%=      5-min Rain = 0
KPD3 130311Z 09007KT 14/06 A3033 RMK A01 T01430060  RH  057%=      5-min Rain = 0
KPD3 130312Z 09008KT 14/06 A3033 RMK A01 T01440059  RH  057%=      5-min Rain = 0
KPD3 130313Z 09009KT 15/06 A3033 RMK A01 T01450058  RH  056%=      5-min Rain = 0
KPD3 130314Z 09010KT 15/06 A3033 RMK A01 T01460057  RH  055%=      5-min Rain = 0
KPD3 130315Z 09009KT 15/06 A3033 RMK A01 T01460057  RH  055%=      5-min Rain = 0
KPD3 130316Z 10009KT 15/06 A3033 RMK A01 T01470057  RH  055%=      5-min Rain = 0
KPD3 130317Z 10008KT 15/06 A3033 RMK A01 T01470057  RH  055%=      5-min Rain = 0
KPD3 130318Z 10008KT 15/06 A3033 RMK A01 T01460058  RH  055%=      5-min Rain = 0
KPD3 130319Z 10007KT 15/06 A3033 RMK A01 T01460058  RH  056%=      5-min Rain = 0
KPD3 130320Z 10007KT 15/06 A3033 RMK A01 T01450059  RH  056%=      5-min Rain = 0
KPD3 130321Z 10006KT 14/06 A3033 RMK A01 T01440059  RH  057%=      5-min Rain = 0
KPD3 130322Z 10006KT 14/06 A3033 RMK A01 T01430059  RH  057%=      5-min Rain = 0
KPD3 130323Z 09006KT 14/06 A3033 RMK A01 T01420059  RH  057%=      5-min Rain = 0
KPD3 130324Z 09006KT 14/06 A3033 RMK A01 T01410059  RH  058%=      5-min Rain = 0
KPD3 130325Z 09006KT 14/06 A3033 RMK A01 T01400059  RH  058%=      5-min Rain = 0
KPD3 130326Z 10007KT 14/06 A3033 RMK A01 T01400059  RH  058%=      5-min Rain = 0
KPD3 130327Z 09007KT 14/06 A3034 RMK A01 T01390058  RH  058%=      5-min Rain = 0
KPD3 130328Z 09007KT 14/06 A3034 RMK A01 T01390058  RH  058%=      5-min Rain = 0
KPD3 130329Z 09006KT 14/06 A3034 RMK A01 T01390058  RH  058%=      5-min Rain = 0
KPD3 130330Z 09006KT 14/06 A3034 RMK A01 T01390058  RH  058%=      5-min Rain = 0
KPD3 130331Z 09005KT 14/06 A3034 RMK A01 T01380058  RH  058%=      5-min Rain = 0
KPD3 130332Z 09006KT 14/06 A3034 RMK A01 T01380058  RH  058%=      5-min Rain = 0
KPD3 130333Z 09006KT 14/06 A3034 RMK A01 T01380057  RH  058%=      5-min Rain = 0
KPD3 130334Z 09006KT 14/06 A3034 RMK A01 T01370057  RH  058%=      5-min Rain = 0
KPD3 130335Z 09006KT 14/06 A3034 RMK A01 T01370057  RH  058%=      5-min Rain = 0
KPD3 130336Z 09006KT 14/06 A3034 RMK A01 T01360057  RH  059%=      5-min Rain = 0
KPD3 130337Z 09006KT 14/06 A3034 RMK A01 T01360057  RH  059%=      5-min Rain = 0
KPD3 130338Z 09006KT 14/06 A3034 RMK A01 T01350057  RH  059%=      5-min Rain = 0
KPD3 130339Z 09006KT 13/06 A3034 RMK A01 T01340057  RH  060%=      5-min Rain = 0
KPD3 130340Z 09006KT 13/06 A3034 RMK A01 T01330057  RH  060%=      5-min Rain = 0
KPD3 130341Z 10006KT 13/06 A3034 RMK A01 T01320057  RH  061%=      5-min Rain = 0
KPD3 130342Z 10006KT 13/06 A3034 RMK A01 T01310057  RH  061%=      5-min Rain = 0
KPD3 130343Z 10006KT 13/06 A3034 RMK A01 T01300057  RH  061%=      5-min Rain = 0
KPD3 130344Z 10006KT 13/06 A3034 RMK A01 T01280057  RH  062%=      5-min Rain = 0
KPD3 130345Z 10007KT 13/06 A3034 RMK A01 T01270057  RH  062%=      5-min Rain = 0
KPD3 130346Z 10006KT 13/06 A3034 RMK A01 T01260056  RH  063%=      5-min Rain = 0
KPD3 130347Z 11006KT 12/06 A3034 RMK A01 T01240056  RH  063%=      5-min Rain = 0
KPD3 130348Z 11006KT 12/06 A3034 RMK A01 T01220055  RH  064%=      5-min Rain = 0
KPD3 130349Z 11006KT 12/06 A3034 RMK A01 T01210055  RH  064%=      5-min Rain = 0
KPD3 130350Z 12006KT 12/05 A3034 RMK A01 T01200054  RH  064%=      5-min Rain = 0
KPD3 130351Z 12006KT 12/05 A3034 RMK A01 T01180054  RH  065%=      5-min Rain = 0
KPD3 130352Z 12007KT 12/05 A3034 RMK A01 T01160054  RH  065%=      5-min Rain = 0
KPD3 130353Z 12007KT 12/05 A3035 RMK A01 T01150053  RH  066%=      5-min Rain = 0
KPD3 130354Z 12008KT 12/05 A3035 RMK A01 T01150053  RH  066%=      5-min Rain = 0
KPD3 130355Z 12008KT 12/05 A3035 RMK A01 T01150053  RH  065%=      5-min Rain = 0
KPD3 130356Z 12008KT 12/05 A3035 RMK A01 T01160053  RH  065%=      5-min Rain = 0
KPD3 130357Z 12007KT 12/05 A3035 RMK A01 T01170053  RH  065%=      5-min Rain = 0
KPD3 130358Z 12007KT 12/05 A3035 RMK A01 T01180053  RH  065%=      5-min Rain = 0
KPD3 130359Z 11008KT 12/05 A3035 RMK A01 T01180054  RH  065%=      5-min Rain = 0
KPD3 130400Z 12009KT 12/05 A3035 RMK A01 T01180054  RH  064%=      5-min Rain = 0
KPD3 130401Z 11010KT 12/06 A3035 RMK A01 T01210055  RH  064%=      5-min Rain = 0
KPD3 130402Z 11009KT 12/06 A3035 RMK A01 T01230055  RH  063%=      5-min Rain = 0
KPD3 130403Z 11009KT 12/06 A3035 RMK A01 T01240055  RH  063%=      5-min Rain = 0
KPD3 130404Z 11010KT 12/06 A3035 RMK A01 T01240056  RH  063%=      5-min Rain = 0
KPD3 130405Z 11009KT 12/06 A3035 RMK A01 T01240056  RH  063%=      5-min Rain = 0
KPD3 130406Z 11009KT 12/06 A3035 RMK A01 T01240056  RH  063%=      5-min Rain = 0
KPD3 130407Z 11009KT 12/06 A3035 RMK A01 T01230056  RH  064%=      5-min Rain = 0
KPD3 130408Z 11009KT 12/06 A3035 RMK A01 T01230056  RH  064%=      5-min Rain = 0
KPD3 130409Z 11009KT 12/06 A3035 RMK A01 T01220056  RH  064%=      5-min Rain = 0
KPD3 130410Z 11008KT 12/06 A3035 RMK A01 T01220056  RH  064%=      5-min Rain = 0
KPD3 130411Z 11008KT 12/06 A3035 RMK A01 T01220056  RH  064%=      5-min Rain = 0
KPD3 130412Z 10008KT 12/06 A3035 RMK A01 T01220056  RH  064%=      5-min Rain = 0
KPD3 130413Z 10007KT 12/06 A3035 RMK A01 T01210056  RH  065%=      5-min Rain = 0
KPD3 130414Z 10007KT 12/06 A3035 RMK A01 T01200057  RH  065%=      5-min Rain = 0
KPD3 130415Z 11007KT 12/06 A3035 RMK A01 T01180056  RH  066%=      5-min Rain = 0
KPD3 130416Z 11007KT 12/06 A3035 RMK A01 T01170056  RH  066%=      5-min Rain = 0
KPD3 130417Z 11007KT 12/06 A3035 RMK A01 T01170056  RH  066%=      5-min Rain = 0
KPD3 130418Z 11007KT 12/06 A3035 RMK A01 T01160056  RH  067%=      5-min Rain = 0
KPD3 130419Z 11007KT 12/06 A3035 RMK A01 T01150055  RH  067%=      5-min Rain = 0
KPD3 130420Z 11007KT 11/06 A3035 RMK A01 T01140055  RH  067%=      5-min Rain = 0
KPD3 130421Z 11006KT 11/06 A3035 RMK A01 T01120055  RH  068%=      5-min Rain = 0
KPD3 130422Z 11006KT 11/06 A3035 RMK A01 T01110055  RH  069%=      5-min Rain = 0
KPD3 130423Z 10006KT 11/06 A3035 RMK A01 T01090055  RH  069%=      5-min Rain = 0
KPD3 130424Z 10006KT 11/06 A3035 RMK A01 T01080055  RH  070%=      5-min Rain = 0
KPD3 130425Z 10006KT 11/05 A3035 RMK A01 T01070054  RH  070%=      5-min Rain = 0
KPD3 130426Z 10006KT 11/05 A3035 RMK A01 T01060054  RH  070%=      5-min Rain = 0
KPD3 130427Z 10006KT 11/05 A3035 RMK A01 T01060054  RH  071%=      5-min Rain = 0
KPD3 130428Z 10006KT 11/05 A3035 RMK A01 T01050054  RH  071%=      5-min Rain = 0
KPD3 130429Z 10006KT 11/05 A3035 RMK A01 T01050054  RH  071%=      5-min Rain = 0
KPD3 130430Z 10005KT 10/05 A3035 RMK A01 T01040054  RH  071%=      5-min Rain = 0
KPD3 130431Z 10005KT 10/05 A3035 RMK A01 T01040054  RH  071%=      5-min Rain = 0
KPD3 130432Z 10005KT 10/05 A3035 RMK A01 T01040054  RH  071%=      5-min Rain = 0
KPD3 130433Z 11005KT 10/05 A3035 RMK A01 T01030054  RH  072%=      5-min Rain = 0
KPD3 130434Z 11005KT 10/05 A3035 RMK A01 T01030054  RH  072%=      5-min Rain = 0
KPD3 130435Z 11005KT 10/05 A3035 RMK A01 T01020053  RH  072%=      5-min Rain = 0
KPD3 130436Z 11005KT 10/05 A3035 RMK A01 T01010053  RH  072%=      5-min Rain = 0
KPD3 130437Z 11005KT 10/05 A3036 RMK A01 T01000052  RH  072%=      5-min Rain = 0
KPD3 130438Z 11005KT 10/05 A3036 RMK A01 T00980052  RH  073%=      5-min Rain = 0
KPD3 130439Z 11005KT 10/05 A3036 RMK A01 T00980051  RH  073%=      5-min Rain = 0
KPD3 130440Z 11005KT 10/05 A3036 RMK A01 T00980052  RH  073%=      5-min Rain = 0
KPD3 130441Z 11005KT 10/05 A3036 RMK A01 T00970052  RH  073%=      5-min Rain = 0
KPD3 130442Z 11005KT 10/05 A3036 RMK A01 T00980052  RH  073%=      5-min Rain = 0
KPD3 130443Z 11005KT 10/05 A3036 RMK A01 T00980052  RH  073%=      5-min Rain = 0
KPD3 130444Z 11005KT 10/05 A3036 RMK A01 T00980052  RH  073%=      5-min Rain = 0
KPD3 130445Z 10005KT 10/05 A3036 RMK A01 T00990053  RH  073%=      5-min Rain = 0
KPD3 130446Z 11005KT 10/05 A3036 RMK A01 T00990053  RH  073%=      5-min Rain = 0
KPD3 130447Z 10005KT 10/05 A3035 RMK A01 T00990053  RH  073%=      5-min Rain = 0
KPD3 130448Z 10005KT 10/05 A3035 RMK A01 T01000053  RH  073%=      5-min Rain = 0
KPD3 130449Z 11005KT 10/05 A3035 RMK A01 T01000053  RH  072%=      5-min Rain = 0
KPD3 130450Z 10005KT 10/05 A3035 RMK A01 T01000053  RH  072%=      5-min Rain = 0
KPD3 130451Z 10005KT 10/05 A3035 RMK A01 T01010053  RH  072%=      5-min Rain = 0
KPD3 130452Z 10005KT 10/05 A3035 RMK A01 T01020053  RH  072%=      5-min Rain = 0
KPD3 130453Z 11005KT 10/05 A3035 RMK A01 T01020052  RH  071%=      5-min Rain = 0
KPD3 130454Z 11005KT 10/05 A3035 RMK A01 T01020052  RH  071%=      5-min Rain = 0
KPD3 130455Z 10005KT 10/05 A3035 RMK A01 T01020052  RH  071%=      5-min Rain = 0
KPD3 130456Z 10005KT 10/05 A3035 RMK A01 T01020052  RH  071%=      5-min Rain = 0
KPD3 130457Z 11005KT 10/05 A3035 RMK A01 T01020052  RH  071%=      5-min Rain = 0
KPD3 130458Z 11005KT 10/05 A3035 RMK A01 T01020052  RH  071%=      5-min Rain = 0
KPD3 130459Z 10005KT 10/05 A3035 RMK A01 T01020052  RH  071%=      5-min Rain = 0

Page generated in 0.0646 seconds.